Wetterdaten: Mittwoch, 24.05.2023
Datum Zeit Temp. Aussen Temp. o. S. Temp +5cm Feuchte Auss Luftdruck Regen Sonnenschein Regendauer Solar Windben Empfang
24.05.2023 00:00 10,6 C 10,0 C 6,7 C 74 % 1024,2 hPa 0,0 l/m 0 min 0 min 0 W/m 6,4 km/h (2 Bft) 100,00 %
24.05.2023 00:02 10,6 C 10,0 C 6,7 C 74 % 1024,2 hPa 0,0 l/m 0 min 0 min 0 W/m 9,7 km/h (2 Bft) 100,00 %
24.05.2023 00:04 10,6 C 9,4 C 6,7 C 74 % 1024,2 hPa 0,0 l/m 0 min 0 min 0 W/m 12,9 km/h (3 Bft) 97,87 %
24.05.2023 00:07 10,6 C 9,4 C 6,7 C 75 % 1024,3 hPa 0,0 l/m 0 min 0 min 0 W/m 9,7 km/h (2 Bft) 97,87 %
24.05.2023 00:08 10,6 C 9,4 C 6,7 C 75 % 1024,3 hPa 0,0 l/m 0 min 0 min 0 W/m 9,7 km/h (2 Bft) 95,28 %
24.05.2023 00:12 10,4 C 9,4 C 6,1 C 75 % 1024,2 hPa 0,0 l/m 0 min 0 min 0 W/m 6,4 km/h (2 Bft) 96,15 %
24.05.2023 00:14 10,4 C 9,4 C 6,1 C 75 % 1024,2 hPa 0,0 l/m 0 min 0 min 0 W/m 19,3 km/h (3 Bft) 96,00 %
24.05.2023 00:16 10,4 C 9,4 C 6,1 C 75 % 1024,3 hPa 0,0 l/m 0 min 0 min 0 W/m 6,4 km/h (2 Bft) 97,87 %
24.05.2023 00:18 10,4 C 9,4 C 6,1 C 75 % 1024,3 hPa 0,0 l/m 0 min 0 min 0 W/m 6,4 km/h (2 Bft) 100,00 %
24.05.2023 00:20 10,4 C 9,4 C 6,1 C 75 % 1024,3 hPa 0,0 l/m 0 min 0 min 0 W/m 12,9 km/h (3 Bft) 95,74 %
24.05.2023 00:22 10,3 C 9,4 C 6,1 C 75 % 1024,3 hPa 0,0 l/m 0 min 0 min 0 W/m 16,1 km/h (3 Bft) 97,87 %
24.05.2023 00:24 10,3 C 9,4 C 6,1 C 75 % 1024,3 hPa 0,0 l/m 0 min 0 min 0 W/m 9,7 km/h (2 Bft) 97,87 %
24.05.2023 00:26 10,3 C 9,4 C 6,1 C 75 % 1024,3 hPa 0,0 l/m 0 min 0 min 0 W/m 9,7 km/h (2 Bft) 95,65 %
24.05.2023 00:28 10,2 C 9,4 C 6,1 C 75 % 1024,3 hPa 0,0 l/m 0 min 0 min 0 W/m 12,9 km/h (3 Bft) 97,87 %
24.05.2023 00:30 10,2 C 9,4 C 6,1 C 76 % 1024,3 hPa 0,0 l/m 0 min 0 min 0 W/m 6,4 km/h (2 Bft) 97,87 %
24.05.2023 00:32 10,2 C 9,4 C 6,1 C 76 % 1024,3 hPa 0,0 l/m 0 min 0 min 0 W/m 6,4 km/h (2 Bft) 94,29 %
24.05.2023 00:34 10,1 C 9,4 C 6,1 C 76 % 1024,3 hPa 0,0 l/m 0 min 0 min 0 W/m 6,4 km/h (2 Bft) 97,87 %
24.05.2023 00:36 10,1 C 9,4 C 6,1 C 76 % 1024,2 hPa 0,0 l/m 0 min 0 min 0 W/m 6,4 km/h (2 Bft) 95,74 %
24.05.2023 00:38 10,1 C 9,4 C 6,1 C 76 % 1024,2 hPa 0,0 l/m 0 min 0 min 0 W/m 3,2 km/h (1 Bft) 98,25 %
24.05.2023 00:40 10,1 C 8,9 C 6,1 C 76 % 1024,2 hPa 0,0 l/m 0 min 0 min 0 W/m 9,7 km/h (2 Bft) 95,74 %
24.05.2023 00:42 10,1 C 9,4 C 6,1 C 76 % 1024,2 hPa 0,0 l/m 0 min 0 min 0 W/m 6,4 km/h (2 Bft) 93,62 %
24.05.2023 00:44 10,0 C 8,9 C 5,6 C 76 % 1024,2 hPa 0,0 l/m 0 min 0 min 0 W/m 9,7 km/h (2 Bft) 93,62 %
24.05.2023 00:46 10,0 C 8,9 C 5,6 C 77 % 1024,2 hPa 0,0 l/m 0 min 0 min 0 W/m 3,2 km/h (1 Bft) 95,74 %
24.05.2023 00:48 9,9 C 8,9 C 5,6 C 77 % 1024,2 hPa 0,0 l/m 0 min 0 min 0 W/m 3,2 km/h (1 Bft) 58,33 %
24.05.2023 00:50 9,9 C 8,9 C 5,6 C 77 % 1024,2 hPa 0,0 l/m 0 min 0 min 0 W/m 9,7 km/h (2 Bft) 100,00 %
24.05.2023 00:52 9,9 C 8,9 C 5,6 C 77 % 1024,2 hPa 0,0 l/m 0 min 0 min 0 W/m 6,4 km/h (2 Bft) 100,00 %
24.05.2023 00:54 9,9 C 8,9 C 5,6 C 77 % 1024,2 hPa 0,0 l/m 0 min 0 min 0 W/m 3,2 km/h (1 Bft) 100,00 %
24.05.2023 00:56 9,8 C 8,9 C 5,6 C 77 % 1024,2 hPa 0,0 l/m 0 min 0 min 0 W/m 9,7 km/h (2 Bft) 97,87 %
24.05.2023 00:58 9,8 C 8,9 C 5,6 C 77 % 1024,2 hPa 0,0 l/m 0 min 0 min 0 W/m 9,7 km/h (2 Bft) 97,87 %
24.05.2023 01:00 9,8 C 8,9 C 5,6 C 77 % 1024,2 hPa 0,0 l/m 0 min 0 min 0 W/m 6,4 km/h (2 Bft) 100,00 %
24.05.2023 01:02 9,7 C 8,9 C 5,6 C 77 % 1024,2 hPa 0,0 l/m 0 min 0 min 0 W/m 6,4 km/h (2 Bft) 95,74 %
24.05.2023 01:04 9,7 C 8,9 C 5,6 C 78 % 1024,2 hPa 0,0 l/m 0 min 0 min 0 W/m 3,2 km/h (1 Bft) 95,83 %
24.05.2023 01:06 9,7 C 8,9 C 5,6 C 78 % 1024,3 hPa 0,0 l/m 0 min 0 min 0 W/m 3,2 km/h (1 Bft) 95,65 %
24.05.2023 01:08 9,6 C 8,3 C 5,6 C 78 % 1024,3 hPa 0,0 l/m 0 min 0 min 0 W/m 9,7 km/h (2 Bft) 95,74 %
24.05.2023 01:10 9,6 C 8,3 C 5,6 C 78 % 1024,3 hPa 0,0 l/m 0 min 0 min 0 W/m 3,2 km/h (1 Bft) 93,62 %
24.05.2023 01:12 9,6 C 8,3 C 5,6 C 78 % 1024,3 hPa 0,0 l/m 0 min 0 min 0 W/m 3,2 km/h (1 Bft) 95,74 %
24.05.2023 01:14 9,6 C 8,3 C 5,0 C 78 % 1024,3 hPa 0,0 l/m 0 min 0 min 0 W/m 6,4 km/h (2 Bft) 93,62 %
24.05.2023 01:16 9,6 C 8,3 C 5,0 C 78 % 1024,3 hPa 0,0 l/m 0 min 0 min 0 W/m 3,2 km/h (1 Bft) 95,74 %
24.05.2023 01:18 9,5 C 8,3 C 5,0 C 79 % 1024,3 hPa 0,0 l/m 0 min 0 min 0 W/m 9,7 km/h (2 Bft) 97,14 %
24.05.2023 01:20 9,4 C 8,3 C 5,0 C 79 % 1024,3 hPa 0,0 l/m 0 min 0 min 0 W/m 6,4 km/h (2 Bft) 92,59 %
24.05.2023 01:22 9,4 C 8,3 C 5,0 C 79 % 1024,3 hPa 0,0 l/m 0 min 0 min 0 W/m 3,2 km/h (1 Bft) 93,62 %
24.05.2023 01:24 9,4 C 8,3 C 5,0 C 79 % 1024,3 hPa 0,0 l/m 0 min 0 min 0 W/m 0,0 km/h (0 Bft) 95,74 %
24.05.2023 01:26 9,3 C 8,3 C 5,0 C 79 % 1024,3 hPa 0,0 l/m 0 min 0 min 0 W/m 6,4 km/h (2 Bft) 95,74 %
24.05.2023 01:28 9,3 C 8,3 C 5,0 C 79 % 1024,3 hPa 0,0 l/m 0 min 0 min 0 W/m 3,2 km/h (1 Bft) 95,74 %
24.05.2023 01:30 9,3 C 7,8 C 5,0 C 79 % 1024,3 hPa 0,0 l/m 0 min 0 min 0 W/m 6,4 km/h (2 Bft) 95,74 %
24.05.2023 01:32 9,2 C 7,8 C 5,0 C 80 % 1024,4 hPa 0,0 l/m 0 min 0 min 0 W/m 6,4 km/h (2 Bft) 91,30 %
24.05.2023 01:34 9,2 C 7,8 C 5,0 C 80 % 1024,3 hPa 0,0 l/m 0 min 0 min 0 W/m 3,2 km/h (1 Bft) 93,62 %
24.05.2023 01:36 9,2 C 7,8 C 5,0 C 80 % 1024,3 hPa 0,0 l/m 0 min 0 min 0 W/m 0,0 km/h (0 Bft) 97,87 %
24.05.2023 01:38 9,1 C 7,8 C 5,0 C 80 % 1024,3 hPa 0,0 l/m 0 min 0 min 0 W/m 6,4 km/h (2 Bft) 95,74 %
24.05.2023 01:40 9,1 C 7,8 C 5,0 C 80 % 1024,3 hPa 0,0 l/m 0 min 0 min 0 W/m 6,4 km/h (2 Bft) 97,87 %
24.05.2023 01:42 9,1 C 7,8 C 5,0 C 80 % 1024,3 hPa 0,0 l/m 0 min 0 min 0 W/m 3,2 km/h (1 Bft) 97,87 %
24.05.2023 01:44 9,0 C 7,8 C 5,0 C 80 % 1024,3 hPa 0,0 l/m 0 min 0 min 0 W/m 6,4 km/h (2 Bft) 97,87 %
24.05.2023 01:46 9,0 C 7,8 C 5,0 C 81 % 1024,3 hPa 0,0 l/m 0 min 0 min 0 W/m 6,4 km/h (2 Bft) 95,65 %
24.05.2023 01:48 8,9 C 7,8 C 5,0 C 81 % 1024,3 hPa 0,0 l/m 0 min 0 min 0 W/m 3,2 km/h (1 Bft) 97,87 %
24.05.2023 01:50 8,9 C 7,8 C 5,0 C 81 % 1024,3 hPa 0,0 l/m 0 min 0 min 0 W/m 3,2 km/h (1 Bft) 97,87 %
24.05.2023 01:52 8,9 C 7,8 C 5,0 C 81 % 1024,3 hPa 0,0 l/m 0 min 0 min 0 W/m 3,2 km/h (1 Bft) 95,74 %
24.05.2023 01:54 8,9 C 7,8 C 5,0 C 81 % 1024,3 hPa 0,0 l/m 0 min 0 min 0 W/m 3,2 km/h (1 Bft) 97,62 %
24.05.2023 01:56 8,8 C 7,8 C 5,0 C 81 % 1024,4 hPa 0,0 l/m 0 min 0 min 0 W/m 6,4 km/h (2 Bft) 93,62 %
24.05.2023 01:58 8,8 C 7,8 C 4,4 C 81 % 1024,4 hPa 0,0 l/m 0 min 0 min 0 W/m 6,4 km/h (2 Bft) 98,00 %
24.05.2023 02:00 8,8 C 7,8 C 4,4 C 81 % 1024,4 hPa 0,0 l/m 0 min 0 min 0 W/m 3,2 km/h (1 Bft) 100,00 %
24.05.2023 02:02 8,8 C 7,8 C 4,4 C 81 % 1024,4 hPa 0,0 l/m 0 min 0 min 0 W/m 3,2 km/h (1 Bft) 93,62 %
24.05.2023 02:04 8,7 C 7,8 C 4,4 C 82 % 1024,4 hPa 0,0 l/m 0 min 0 min 0 W/m 0,0 km/h (0 Bft) 97,73 %
24.05.2023 02:06 8,7 C 7,8 C 4,4 C 82 % 1024,4 hPa 0,0 l/m 0 min 0 min 0 W/m 3,2 km/h (1 Bft) 96,61 %
24.05.2023 02:08 8,7 C 7,8 C 4,4 C 82 % 1024,4 hPa 0,0 l/m 0 min 0 min 0 W/m 3,2 km/h (1 Bft) 97,14 %
24.05.2023 02:10 8,6 C 7,8 C 4,4 C 82 % 1024,4 hPa 0,0 l/m 0 min 0 min 0 W/m 3,2 km/h (1 Bft) 100,00 %
24.05.2023 02:12 8,6 C 7,2 C 4,4 C 82 % 1024,4 hPa 0,0 l/m 0 min 0 min 0 W/m 3,2 km/h (1 Bft) 97,87 %
24.05.2023 02:14 8,6 C 7,2 C 4,4 C 82 % 1024,4 hPa 0,0 l/m 0 min 0 min 0 W/m 3,2 km/h (1 Bft) 58,70 %
24.05.2023 02:16 8,6 C 7,2 C 4,4 C 82 % 1024,5 hPa 0,0 l/m 0 min 0 min 0 W/m 3,2 km/h (1 Bft) 95,65 %
24.05.2023 02:18 8,6 C 7,2 C 4,4 C 82 % 1024,5 hPa 0,0 l/m 0 min 0 min 0 W/m 3,2 km/h (1 Bft) 97,87 %
24.05.2023 02:20 8,6 C 7,2 C 4,4 C 82 % 1024,5 hPa 0,0 l/m 0 min 0 min 0 W/m 3,2 km/h (1 Bft) 95,74 %
24.05.2023 02:22 8,5 C 7,2 C 4,4 C 83 % 1024,4 hPa 0,0 l/m 0 min 0 min 0 W/m 3,2 km/h (1 Bft) 97,87 %
24.05.2023 02:24 8,5 C 7,2 C 4,4 C 83 % 1024,4 hPa 0,0 l/m 0 min 0 min 0 W/m 3,2 km/h (1 Bft) 97,92 %
24.05.2023 02:26 8,4 C 7,2 C 4,4 C 83 % 1024,3 hPa 0,0 l/m 0 min 0 min 0 W/m 3,2 km/h (1 Bft) 95,74 %
24.05.2023 02:28 8,4 C 7,2 C 4,4 C 83 % 1024,4 hPa 0,0 l/m 0 min 0 min 0 W/m 3,2 km/h (1 Bft) 97,87 %
24.05.2023 02:30 8,4 C 7,2 C 4,4 C 83 % 1024,4 hPa 0,0 l/m 0 min 0 min 0 W/m 3,2 km/h (1 Bft) 97,83 %
24.05.2023 02:32 8,4 C 7,2 C 4,4 C 83 % 1024,3 hPa 0,0 l/m 0 min 0 min 0 W/m 3,2 km/h (1 Bft) 97,87 %
24.05.2023 02:34 8,3 C 7,2 C 4,4 C 83 % 1024,3 hPa 0,0 l/m 0 min 0 min 0 W/m 3,2 km/h (1 Bft) 95,74 %
24.05.2023 02:36 8,3 C 7,2 C 4,4 C 83 % 1024,3 hPa 0,0 l/m 0 min 0 min 0 W/m 3,2 km/h (1 Bft) 97,87 %
24.05.2023 02:38 8,3 C 7,2 C 4,4 C 83 % 1024,3 hPa 0,0 l/m 0 min 0 min 0 W/m 3,2 km/h (1 Bft) 97,87 %
24.05.2023 02:40 8,3 C 7,2 C 4,4 C 84 % 1024,3 hPa 0,0 l/m 0 min 0 min 0 W/m 3,2 km/h (1 Bft) 95,83 %
24.05.2023 02:42 8,3 C 7,2 C 4,4 C 84 % 1024,3 hPa 0,0 l/m 0 min 0 min 0 W/m 3,2 km/h (1 Bft) 95,74 %
24.05.2023 02:44 8,3 C 7,2 C 4,4 C 84 % 1024,3 hPa 0,0 l/m 0 min 0 min 0 W/m 3,2 km/h (1 Bft) 95,74 %
24.05.2023 02:46 8,3 C 7,2 C 4,4 C 84 % 1024,2 hPa 0,0 l/m 0 min 0 min 0 W/m 6,4 km/h (2 Bft) 95,65 %
24.05.2023 02:48 8,2 C 7,2 C 4,4 C 84 % 1024,2 hPa 0,0 l/m 0 min 0 min 0 W/m 3,2 km/h (1 Bft) 95,74 %
24.05.2023 02:50 8,2 C 7,2 C 4,4 C 84 % 1024,3 hPa 0,0 l/m 0 min 0 min 0 W/m 0,0 km/h (0 Bft) 95,74 %
24.05.2023 02:52 8,2 C 7,2 C 4,4 C 84 % 1024,2 hPa 0,0 l/m 0 min 0 min 0 W/m 3,2 km/h (1 Bft) 97,96 %
24.05.2023 02:54 8,2 C 7,2 C 4,4 C 84 % 1024,2 hPa 0,0 l/m 0 min 0 min 0 W/m 0,0 km/h (0 Bft) 97,87 %
24.05.2023 02:56 8,2 C 7,2 C 4,4 C 84 % 1024,3 hPa 0,0 l/m 0 min 0 min 0 W/m 0,0 km/h (0 Bft) 97,87 %
24.05.2023 02:58 8,2 C 7,2 C 4,4 C 84 % 1024,2 hPa 0,0 l/m 0 min 0 min 0 W/m 0,0 km/h (0 Bft) 97,87 %
24.05.2023 03:00 8,2 C 7,2 C 4,4 C 84 % 1024,2 hPa 0,0 l/m 0 min 0 min 0 W/m 0,0 km/h (0 Bft) 95,74 %
24.05.2023 03:02 8,2 C 7,2 C 4,4 C 84 % 1024,2 hPa 0,0 l/m 0 min 0 min 0 W/m 0,0 km/h (0 Bft) 97,83 %
24.05.2023 03:04 8,2 C 7,2 C 4,4 C 85 % 1024,2 hPa 0,0 l/m 0 min 0 min 0 W/m 0,0 km/h (0 Bft) 93,88 %
24.05.2023 03:06 8,1 C 6,7 C 3,9 C 85 % 1024,2 hPa 0,0 l/m 0 min 0 min 0 W/m 0,0 km/h (0 Bft) 100,00 %
24.05.2023 03:08 8,1 C 6,7 C 4,4 C 85 % 1024,2 hPa 0,0 l/m 0 min 0 min 0 W/m 0,0 km/h (0 Bft) 100,00 %
24.05.2023 03:10 8,1 C 6,7 C 4,4 C 85 % 1024,2 hPa 0,0 l/m 0 min 0 min 0 W/m 0,0 km/h (0 Bft) 100,00 %
24.05.2023 03:12 8,1 C 6,7 C 3,9 C 85 % 1024,2 hPa 0,0 l/m 0 min 0 min 0 W/m 0,0 km/h (0 Bft) 100,00 %
24.05.2023 03:14 8,1 C 6,7 C 3,9 C 85 % 1024,2 hPa 0,0 l/m 0 min 0 min 0 W/m 0,0 km/h (0 Bft) 95,74 %
24.05.2023 03:16 8,0 C 6,7 C 3,9 C 85 % 1024,2 hPa 0,0 l/m 0 min 0 min 0 W/m 3,2 km/h (1 Bft) 100,00 %
24.05.2023 03:18 8,0 C 6,7 C 3,9 C 85 % 1024,1 hPa 0,0 l/m 0 min 0 min 0 W/m 3,2 km/h (1 Bft) 100,00 %
24.05.2023 03:20 7,9 C 6,7 C 3,9 C 85 % 1024,1 hPa 0,0 l/m 0 min 0 min 0 W/m 3,2 km/h (1 Bft) 100,00 %
24.05.2023 03:22 7,9 C 6,7 C 3,9 C 85 % 1024,1 hPa 0,0 l/m 0 min 0 min 0 W/m 3,2 km/h (1 Bft) 100,00 %
24.05.2023 03:24 7,9 C 6,7 C 3,9 C 85 % 1024,2 hPa 0,0 l/m 0 min 0 min 0 W/m 0,0 km/h (0 Bft) 100,00 %
24.05.2023 03:26 7,9 C 6,7 C 3,9 C 85 % 1024,2 hPa 0,0 l/m 0 min 0 min 0 W/m 0,0 km/h (0 Bft) 100,00 %
24.05.2023 03:28 7,8 C 6,7 C 3,9 C 85 % 1024,1 hPa 0,0 l/m 0 min 0 min 0 W/m 0,0 km/h (0 Bft) 100,00 %
24.05.2023 03:30 7,8 C 6,7 C 3,9 C 85 % 1024,1 hPa 0,0 l/m 0 min 0 min 0 W/m 0,0 km/h (0 Bft) 97,87 %
24.05.2023 03:32 7,8 C 6,7 C 3,9 C 85 % 1024,1 hPa 0,0 l/m 0 min 0 min 0 W/m 0,0 km/h (0 Bft) 100,00 %
24.05.2023 03:34 7,8 C 6,7 C 3,9 C 85 % 1024,2 hPa 0,0 l/m 0 min 0 min 0 W/m 0,0 km/h (0 Bft) 100,00 %
24.05.2023 03:36 7,8 C 6,7 C 3,9 C 85 % 1024,2 hPa 0,0 l/m 0 min 0 min 0 W/m 0,0 km/h (0 Bft) 100,00 %
24.05.2023 03:38 7,7 C 6,7 C 3,9 C 85 % 1024,1 hPa 0,0 l/m 0 min 0 min 0 W/m 3,2 km/h (1 Bft) 100,00 %
24.05.2023 03:40 7,7 C 6,7 C 3,9 C 85 % 1024,2 hPa 0,0 l/m 0 min 0 min 0 W/m 3,2 km/h (1 Bft) 100,00 %
24.05.2023 03:42 7,7 C 6,7 C 3,3 C 85 % 1024,1 hPa 0,0 l/m 0 min 0 min 0 W/m 3,2 km/h (1 Bft) 100,00 %
24.05.2023 03:44 7,6 C 6,7 C 3,3 C 86 % 1024,1 hPa 0,0 l/m 0 min 0 min 0 W/m 3,2 km/h (1 Bft) 100,00 %
24.05.2023 03:46 7,6 C 6,7 C 3,3 C 86 % 1024,1 hPa 0,0 l/m 0 min 0 min 0 W/m 3,2 km/h (1 Bft) 100,00 %
24.05.2023 03:48 7,6 C 6,1 C 3,3 C 86 % 1024,1 hPa 0,0 l/m 0 min 0 min 0 W/m 3,2 km/h (1 Bft) 100,00 %
24.05.2023 03:50 7,6 C 6,7 C 3,9 C 86 % 1024,0 hPa 0,0 l/m 0 min 0 min 0 W/m 0,0 km/h (0 Bft) 97,87 %
24.05.2023 03:52 7,6 C 6,7 C 3,9 C 86 % 1024,0 hPa 0,0 l/m 0 min 0 min 0 W/m 0,0 km/h (0 Bft) 100,00 %
24.05.2023 03:54 7,6 C 6,7 C 3,9 C 86 % 1024,0 hPa 0,0 l/m 0 min 0 min 0 W/m 0,0 km/h (0 Bft) 100,00 %
24.05.2023 03:56 7,5 C 6,1 C 3,3 C 86 % 1024,0 hPa 0,0 l/m 0 min 0 min 0 W/m 0,0 km/h (0 Bft) 100,00 %
24.05.2023 03:58 7,5 C 6,1 C 3,3 C 86 % 1024,0 hPa 0,0 l/m 0 min 0 min 0 W/m 0,0 km/h (0 Bft) 100,00 %
24.05.2023 04:00 7,4 C 6,1 C 3,3 C 87 % 1024,0 hPa 0,0 l/m 0 min 0 min 0 W/m 0,0 km/h (0 Bft) 100,00 %
24.05.2023 04:02 7,4 C 6,1 C 3,3 C 87 % 1024,0 hPa 0,0 l/m 0 min 0 min 0 W/m 0,0 km/h (0 Bft) 91,67 %
24.05.2023 04:04 7,4 C 6,1 C 3,3 C 87 % 1024,0 hPa 0,0 l/m 0 min 0 min 0 W/m 0,0 km/h (0 Bft) 93,62 %
24.05.2023 04:06 7,4 C 6,1 C 3,3 C 87 % 1023,9 hPa 0,0 l/m 0 min 0 min 0 W/m 0,0 km/h (0 Bft) 100,00 %
24.05.2023 04:08 7,4 C 6,1 C 3,3 C 87 % 1023,9 hPa 0,0 l/m 0 min 0 min 0 W/m 0,0 km/h (0 Bft) 95,74 %
24.05.2023 04:10 7,3 C 6,1 C 3,3 C 87 % 1023,9 hPa 0,0 l/m 0 min 0 min 0 W/m 0,0 km/h (0 Bft) 95,74 %
24.05.2023 04:12 7,3 C 6,1 C 3,3 C 87 % 1023,9 hPa 0,0 l/m 0 min 0 min 0 W/m 0,0 km/h (0 Bft) 95,74 %
24.05.2023 04:14 7,3 C 5,6 C 3,3 C 87 % 1023,9 hPa 0,0 l/m 0 min 0 min 0 W/m 0,0 km/h (0 Bft) 95,74 %
24.05.2023 04:16 7,3 C 5,6 C 3,3 C 87 % 1023,9 hPa 0,0 l/m 0 min 0 min 0 W/m 0,0 km/h (0 Bft) 93,62 %
24.05.2023 04:18 7,2 C 5,6 C 2,8 C 87 % 1024,0 hPa 0,0 l/m 0 min 0 min 0 W/m 0,0 km/h (0 Bft) 95,83 %
24.05.2023 04:20 7,2 C 5,6 C 3,3 C 87 % 1024,0 hPa 0,0 l/m 0 min 0 min 0 W/m 0,0 km/h (0 Bft) 93,48 %
24.05.2023 04:22 7,2 C 6,1 C 3,3 C 87 % 1023,9 hPa 0,0 l/m 0 min 0 min 0 W/m 0,0 km/h (0 Bft) 93,62 %
24.05.2023 04:24 7,2 C 5,6 C 3,3 C 87 % 1023,9 hPa 0,0 l/m 0 min 0 min 0 W/m 0,0 km/h (0 Bft) 95,74 %
24.05.2023 04:26 7,1 C 6,1 C 3,3 C 87 % 1023,8 hPa 0,0 l/m 0 min 0 min 0 W/m 0,0 km/h (0 Bft) 95,74 %
24.05.2023 04:28 7,1 C 6,1 C 3,3 C 88 % 1023,9 hPa 0,0 l/m 0 min 0 min 0 W/m 0,0 km/h (0 Bft) 95,74 %
24.05.2023 04:30 7,1 C 6,1 C 3,3 C 88 % 1023,9 hPa 0,0 l/m 0 min 0 min 0 W/m 0,0 km/h (0 Bft) 95,24 %
24.05.2023 04:32 7,1 C 6,1 C 3,3 C 88 % 1023,8 hPa 0,0 l/m 0 min 0 min 0 W/m 0,0 km/h (0 Bft) 93,62 %
24.05.2023 04:34 7,1 C 6,1 C 3,3 C 88 % 1023,8 hPa 0,0 l/m 0 min 0 min 0 W/m 0,0 km/h (0 Bft) 95,74 %
24.05.2023 04:36 7,1 C 5,6 C 3,3 C 88 % 1023,9 hPa 0,0 l/m 0 min 0 min 0 W/m 0,0 km/h (0 Bft) 97,83 %
24.05.2023 04:38 7,0 C 5,6 C 3,3 C 88 % 1023,9 hPa 0,0 l/m 0 min 0 min 0 W/m 0,0 km/h (0 Bft) 97,87 %
24.05.2023 04:40 7,0 C 5,6 C 3,3 C 88 % 1023,9 hPa 0,0 l/m 0 min 0 min 0 W/m 0,0 km/h (0 Bft) 97,87 %
24.05.2023 04:42 6,9 C 5,6 C 3,3 C 88 % 1023,9 hPa 0,0 l/m 0 min 0 min 0 W/m 0,0 km/h (0 Bft) 97,87 %
24.05.2023 04:44 6,9 C 5,6 C 3,3 C 88 % 1023,9 hPa 0,0 l/m 0 min 0 min 0 W/m 0,0 km/h (0 Bft) 95,74 %
24.05.2023 04:46 6,9 C 5,6 C 2,8 C 88 % 1023,9 hPa 0,0 l/m 0 min 0 min 0 W/m 0,0 km/h (0 Bft) 97,87 %
24.05.2023 04:48 6,9 C 5,6 C 2,8 C 88 % 1023,9 hPa 0,0 l/m 0 min 0 min 0 W/m 0,0 km/h (0 Bft) 100,00 %
24.05.2023 04:50 6,8 C 5,6 C 2,8 C 88 % 1023,9 hPa 0,0 l/m 0 min 0 min 0 W/m 0,0 km/h (0 Bft) 100,00 %
24.05.2023 04:52 6,8 C 5,6 C 2,8 C 88 % 1023,9 hPa 0,0 l/m 0 min 0 min 0 W/m 0,0 km/h (0 Bft) 97,87 %
24.05.2023 04:54 6,8 C 5,6 C 2,8 C 88 % 1023,9 hPa 0,0 l/m 0 min 0 min 0 W/m 0,0 km/h (0 Bft) 100,00 %
24.05.2023 04:56 6,8 C 5,6 C 2,8 C 88 % 1023,9 hPa 0,0 l/m 0 min 0 min 0 W/m 0,0 km/h (0 Bft) 97,87 %
24.05.2023 04:58 6,7 C 5,6 C 2,8 C 88 % 1023,9 hPa 0,0 l/m 0 min 0 min 0 W/m 3,2 km/h (1 Bft) 100,00 %
24.05.2023 05:00 6,7 C 5,6 C 2,8 C 88 % 1023,9 hPa 0,0 l/m 0 min 0 min 0 W/m 3,2 km/h (1 Bft) 97,87 %
24.05.2023 05:02 6,7 C 5,6 C 2,8 C 88 % 1023,9 hPa 0,0 l/m 0 min 0 min 0 W/m 0,0 km/h (0 Bft) 100,00 %
24.05.2023 05:04 6,6 C 5,6 C 2,8 C 89 % 1023,9 hPa 0,0 l/m 0 min 0 min 0 W/m 0,0 km/h (0 Bft) 100,00 %
24.05.2023 05:06 6,6 C 5,6 C 2,8 C 89 % 1024,0 hPa 0,0 l/m 0 min 0 min 0 W/m 0,0 km/h (0 Bft) 100,00 %
24.05.2023 05:08 6,6 C 5,6 C 2,8 C 89 % 1024,0 hPa 0,0 l/m 0 min 0 min 0 W/m 0,0 km/h (0 Bft) 100,00 %
24.05.2023 05:10 6,6 C 5,6 C 2,8 C 89 % 1024,0 hPa 0,0 l/m 0 min 0 min 0 W/m 0,0 km/h (0 Bft) 100,00 %
24.05.2023 05:12 6,6 C 5,6 C 2,8 C 89 % 1023,9 hPa 0,0 l/m 0 min 0 min 0 W/m 0,0 km/h (0 Bft) 100,00 %
24.05.2023 05:14 6,6 C 5,6 C 2,8 C 89 % 1023,9 hPa 0,0 l/m 0 min 0 min 0 W/m 0,0 km/h (0 Bft) 100,00 %
24.05.2023 05:16 6,6 C 5,6 C 2,8 C 89 % 1024,0 hPa 0,0 l/m 0 min 0 min 0 W/m 0,0 km/h (0 Bft) 100,00 %
24.05.2023 05:18 6,5 C 5,6 C 2,8 C 89 % 1023,9 hPa 0,0 l/m 0 min 0 min 0 W/m 0,0 km/h (0 Bft) 100,00 %
24.05.2023 05:20 6,5 C 5,6 C 2,8 C 89 % 1024,0 hPa 0,0 l/m 0 min 0 min 0 W/m 3,2 km/h (1 Bft) 100,00 %
24.05.2023 05:22 6,5 C 5,6 C 2,8 C 89 % 1024,0 hPa 0,0 l/m 0 min 0 min 0 W/m 3,2 km/h (1 Bft) 100,00 %
24.05.2023 05:24 6,5 C 5,6 C 2,2 C 89 % 1024,0 hPa 0,0 l/m 0 min 0 min 0 W/m 3,2 km/h (1 Bft) 100,00 %
24.05.2023 05:26 6,4 C 5,6 C 2,2 C 89 % 1023,9 hPa 0,0 l/m 0 min 0 min 0 W/m 6,4 km/h (2 Bft) 97,73 %
24.05.2023 05:28 6,4 C 5,6 C 2,2 C 89 % 1023,9 hPa 0,0 l/m 0 min 0 min 0 W/m 3,2 km/h (1 Bft) 95,74 %
24.05.2023 05:30 6,4 C 5,6 C 2,8 C 89 % 1023,9 hPa 0,0 l/m 0 min 0 min 0 W/m 0,0 km/h (0 Bft) 95,74 %
24.05.2023 05:32 6,4 C 5,6 C 2,8 C 90 % 1023,9 hPa 0,0 l/m 0 min 0 min 0 W/m 0,0 km/h (0 Bft) 97,87 %
24.05.2023 05:34 6,4 C 5,6 C 2,8 C 90 % 1023,9 hPa 0,0 l/m 0 min 0 min 0 W/m 0,0 km/h (0 Bft) 97,87 %
24.05.2023 05:36 6,4 C 5,6 C 2,8 C 90 % 1023,9 hPa 0,0 l/m 0 min 0 min 4 W/m 0,0 km/h (0 Bft) 50,00 %
24.05.2023 05:38 6,4 C 5,6 C 2,8 C 90 % 1023,9 hPa 0,0 l/m 0 min 0 min 5 W/m 3,2 km/h (1 Bft) 93,62 %
24.05.2023 05:40 6,4 C 5,6 C 2,8 C 90 % 1024,0 hPa 0,0 l/m 0 min 0 min 5 W/m 3,2 km/h (1 Bft) 93,48 %
24.05.2023 05:42 6,4 C 5,6 C 2,8 C 90 % 1024,0 hPa 0,0 l/m 0 min 0 min 7 W/m 3,2 km/h (1 Bft) 95,74 %
24.05.2023 05:44 6,4 C 5,6 C 2,8 C 90 % 1024,0 hPa 0,0 l/m 0 min 0 min 7 W/m 3,2 km/h (1 Bft) 95,74 %
24.05.2023 05:46 6,4 C 5,6 C 2,8 C 90 % 1024,0 hPa 0,0 l/m 0 min 0 min 8 W/m 0,0 km/h (0 Bft) 95,74 %
24.05.2023 05:48 6,4 C 5,6 C 2,8 C 90 % 1024,0 hPa 0,0 l/m 0 min 0 min 9 W/m 0,0 km/h (0 Bft) 95,74 %
24.05.2023 05:50 6,4 C 5,6 C 2,8 C 90 % 1024,0 hPa 0,0 l/m 0 min 0 min 10 W/m 0,0 km/h (0 Bft) 95,74 %
24.05.2023 05:52 6,4 C 5,6 C 2,8 C 90 % 1024,0 hPa 0,0 l/m 0 min 0 min 11 W/m 0,0 km/h (0 Bft) 95,74 %
24.05.2023 05:54 6,4 C 5,6 C 2,8 C 90 % 1024,0 hPa 0,0 l/m 0 min 0 min 11 W/m 0,0 km/h (0 Bft) 95,65 %
24.05.2023 05:56 6,4 C 5,6 C 2,8 C 90 % 1024,1 hPa 0,0 l/m 0 min 0 min 12 W/m 0,0 km/h (0 Bft) 95,74 %
24.05.2023 05:58 6,4 C 5,6 C 2,8 C 90 % 1024,1 hPa 0,0 l/m 0 min 0 min 12 W/m 3,2 km/h (1 Bft) 93,62 %
24.05.2023 06:00 6,3 C 5,6 C 2,8 C 90 % 1024,1 hPa 0,0 l/m 0 min 0 min 14 W/m 3,2 km/h (1 Bft) 95,74 %
24.05.2023 06:02 6,3 C 5,6 C 2,8 C 90 % 1024,1 hPa 0,0 l/m 0 min 0 min 14 W/m 3,2 km/h (1 Bft) 97,87 %
24.05.2023 06:04 6,3 C 5,6 C 2,8 C 91 % 1024,1 hPa 0,0 l/m 0 min 0 min 16 W/m 0,0 km/h (0 Bft) 95,83 %
24.05.2023 06:07 6,3 C 5,6 C 2,8 C 91 % 1024,0 hPa 0,0 l/m 0 min 0 min 18 W/m 0,0 km/h (0 Bft) 95,83 %
24.05.2023 06:08 6,3 C 5,6 C 2,8 C 91 % 1024,0 hPa 0,0 l/m 0 min 0 min 17 W/m 0,0 km/h (0 Bft) 97,85 %
24.05.2023 06:10 6,3 C 5,6 C 2,8 C 91 % 1024,1 hPa 0,0 l/m 0 min 0 min 18 W/m 0,0 km/h (0 Bft) 97,87 %
24.05.2023 06:12 6,3 C 5,6 C 2,8 C 91 % 1024,1 hPa 0,0 l/m 0 min 0 min 19 W/m 0,0 km/h (0 Bft) 95,74 %
24.05.2023 06:14 6,3 C 5,6 C 2,8 C 91 % 1024,1 hPa 0,0 l/m 0 min 0 min 19 W/m 0,0 km/h (0 Bft) 95,74 %
24.05.2023 06:16 6,4 C 5,6 C 2,8 C 91 % 1024,1 hPa 0,0 l/m 0 min 0 min 20 W/m 0,0 km/h (0 Bft) 91,49 %
24.05.2023 06:18 6,4 C 5,6 C 2,8 C 91 % 1024,0 hPa 0,0 l/m 0 min 0 min 21 W/m 0,0 km/h (0 Bft) 95,74 %
24.05.2023 06:20 6,4 C 5,6 C 2,8 C 91 % 1024,0 hPa 0,0 l/m 0 min 0 min 21 W/m 0,0 km/h (0 Bft) 95,65 %
24.05.2023 06:22 6,4 C 5,6 C 3,3 C 91 % 1024,0 hPa 0,0 l/m 0 min 0 min 23 W/m 3,2 km/h (1 Bft) 95,74 %
24.05.2023 06:24 6,5 C 6,1 C 3,3 C 91 % 1024,0 hPa 0,0 l/m 0 min 0 min 23 W/m 0,0 km/h (0 Bft) 95,74 %
24.05.2023 06:26 6,5 C 6,1 C 2,8 C 91 % 1024,0 hPa 0,0 l/m 0 min 0 min 24 W/m 0,0 km/h (0 Bft) 95,74 %
24.05.2023 06:28 6,5 C 6,1 C 2,8 C 91 % 1024,0 hPa 0,0 l/m 0 min 0 min 25 W/m 0,0 km/h (0 Bft) 95,74 %
24.05.2023 06:30 6,5 C 6,1 C 3,3 C 91 % 1024,1 hPa 0,0 l/m 0 min 0 min 25 W/m 0,0 km/h (0 Bft) 95,74 %
24.05.2023 06:32 6,5 C 6,1 C 3,3 C 91 % 1024,1 hPa 0,0 l/m 0 min 0 min 26 W/m 0,0 km/h (0 Bft) 91,49 %
24.05.2023 06:34 6,6 C 6,1 C 3,3 C 92 % 1024,0 hPa 0,0 l/m 0 min 0 min 26 W/m 0,0 km/h (0 Bft) 95,65 %
24.05.2023 06:36 6,6 C 6,1 C 3,3 C 92 % 1024,1 hPa 0,0 l/m 0 min 0 min 26 W/m 0,0 km/h (0 Bft) 95,74 %
24.05.2023 06:38 6,6 C 6,1 C 3,3 C 92 % 1024,1 hPa 0,0 l/m 0 min 0 min 26 W/m 0,0 km/h (0 Bft) 65,96 %
24.05.2023 06:40 6,6 C 6,1 C 3,3 C 92 % 1024,1 hPa 0,0 l/m 0 min 0 min 29 W/m 0,0 km/h (0 Bft) 76,67 %
24.05.2023 06:42 6,7 C 6,1 C 3,3 C 92 % 1024,1 hPa 0,0 l/m 0 min 0 min 41 W/m 0,0 km/h (0 Bft) 95,74 %
24.05.2023 06:44 6,7 C 6,7 C 3,3 C 92 % 1024,1 hPa 0,0 l/m 0 min 0 min 46 W/m 3,2 km/h (1 Bft) 95,74 %
24.05.2023 06:46 6,7 C 6,7 C 3,3 C 92 % 1024,2 hPa 0,0 l/m 0 min 0 min 48 W/m 0,0 km/h (0 Bft) 97,87 %
24.05.2023 06:48 6,7 C 6,7 C 3,3 C 92 % 1024,2 hPa 0,0 l/m 0 min 0 min 46 W/m 3,2 km/h (1 Bft) 100,00 %
24.05.2023 06:50 6,8 C 6,7 C 3,3 C 92 % 1024,2 hPa 0,0 l/m 0 min 0 min 45 W/m 3,2 km/h (1 Bft) 100,00 %
24.05.2023 06:52 6,8 C 6,7 C 3,3 C 92 % 1024,2 hPa 0,0 l/m 0 min 0 min 46 W/m 6,4 km/h (2 Bft) 97,87 %
24.05.2023 06:54 6,8 C 7,2 C 3,3 C 92 % 1024,2 hPa 0,0 l/m 0 min 0 min 50 W/m 3,2 km/h (1 Bft) 97,87 %
24.05.2023 06:56 6,8 C 7,2 C 3,3 C 92 % 1024,2 hPa 0,0 l/m 0 min 0 min 54 W/m 6,4 km/h (2 Bft) 100,00 %
24.05.2023 06:58 6,9 C 7,2 C 3,9 C 92 % 1024,2 hPa 0,0 l/m 0 min 0 min 58 W/m 3,2 km/h (1 Bft) 100,00 %
24.05.2023 07:00 6,9 C 7,2 C 3,9 C 92 % 1024,2 hPa 0,0 l/m 0 min 0 min 57 W/m 3,2 km/h (1 Bft) 93,62 %
24.05.2023 07:02 7,0 C 7,2 C 3,9 C 92 % 1024,3 hPa 0,0 l/m 0 min 0 min 60 W/m 3,2 km/h (1 Bft) 97,87 %
24.05.2023 07:04 7,0 C 7,8 C 3,9 C 92 % 1024,3 hPa 0,0 l/m 0 min 0 min 62 W/m 3,2 km/h (1 Bft) 100,00 %
24.05.2023 07:06 7,1 C 7,8 C 4,4 C 92 % 1024,4 hPa 0,0 l/m 0 min 0 min 62 W/m 3,2 km/h (1 Bft) 97,87 %
24.05.2023 07:08 7,2 C 7,8 C 4,4 C 92 % 1024,3 hPa 0,0 l/m 0 min 0 min 56 W/m 6,4 km/h (2 Bft) 100,00 %
24.05.2023 07:10 7,2 C 7,8 C 4,4 C 92 % 1024,4 hPa 0,0 l/m 0 min 0 min 53 W/m 3,2 km/h (1 Bft) 97,87 %
24.05.2023 07:12 7,2 C 7,8 C 4,4 C 92 % 1024,4 hPa 0,0 l/m 0 min 0 min 49 W/m 6,4 km/h (2 Bft) 95,74 %
24.05.2023 07:14 7,3 C 7,8 C 4,4 C 92 % 1024,5 hPa 0,0 l/m 0 min 0 min 48 W/m 6,4 km/h (2 Bft) 97,87 %
24.05.2023 07:16 7,3 C 7,8 C 3,9 C 92 % 1024,5 hPa 0,0 l/m 0 min 0 min 51 W/m 9,7 km/h (2 Bft) 97,87 %
24.05.2023 07:18 7,4 C 7,8 C 4,4 C 92 % 1024,5 hPa 0,0 l/m 0 min 0 min 51 W/m 3,2 km/h (1 Bft) 97,83 %
24.05.2023 07:20 7,4 C 7,8 C 4,4 C 92 % 1024,6 hPa 0,0 l/m 0 min 0 min 55 W/m 6,4 km/h (2 Bft) 97,87 %
24.05.2023 07:22 7,4 C 7,8 C 4,4 C 92 % 1024,5 hPa 0,0 l/m 0 min 0 min 60 W/m 9,7 km/h (2 Bft) 97,87 %
24.05.2023 07:24 7,5 C 7,8 C 4,4 C 92 % 1024,5 hPa 0,0 l/m 0 min 0 min 60 W/m 3,2 km/h (1 Bft) 97,87 %
24.05.2023 07:26 7,6 C 7,8 C 4,4 C 92 % 1024,5 hPa 0,0 l/m 0 min 0 min 63 W/m 6,4 km/h (2 Bft) 97,87 %
24.05.2023 07:28 7,6 C 7,8 C 4,4 C 92 % 1024,6 hPa 0,0 l/m 0 min 0 min 65 W/m 6,4 km/h (2 Bft) 97,87 %
24.05.2023 07:30 7,6 C 7,8 C 4,4 C 92 % 1024,6 hPa 0,0 l/m 0 min 0 min 63 W/m 6,4 km/h (2 Bft) 97,87 %
24.05.2023 07:32 7,7 C 7,8 C 4,4 C 92 % 1024,7 hPa 0,0 l/m 0 min 0 min 65 W/m 6,4 km/h (2 Bft) 97,83 %
24.05.2023 07:34 7,7 C 7,8 C 4,4 C 92 % 1024,6 hPa 0,0 l/m 0 min 0 min 76 W/m 9,7 km/h (2 Bft) 97,87 %
24.05.2023 07:36 7,7 C 8,3 C 4,4 C 92 % 1024,6 hPa 0,0 l/m 0 min 0 min 78 W/m 3,2 km/h (1 Bft) 97,87 %
24.05.2023 07:38 7,8 C 8,3 C 5,0 C 92 % 1024,6 hPa 0,0 l/m 0 min 0 min 77 W/m 3,2 km/h (1 Bft) 97,87 %
24.05.2023 07:40 7,8 C 8,3 C 5,0 C 92 % 1024,7 hPa 0,0 l/m 0 min 0 min 76 W/m 6,4 km/h (2 Bft) 97,87 %
24.05.2023 07:42 7,9 C 8,3 C 5,0 C 92 % 1024,6 hPa 0,0 l/m 0 min 0 min 83 W/m 9,7 km/h (2 Bft) 100,00 %
24.05.2023 07:44 7,9 C 8,3 C 5,0 C 92 % 1024,6 hPa 0,0 l/m 0 min 0 min 96 W/m 6,4 km/h (2 Bft) 100,00 %
24.05.2023 07:46 7,9 C 8,3 C 5,0 C 92 % 1024,6 hPa 0,0 l/m 0 min 0 min 100 W/m 6,4 km/h (2 Bft) 100,00 %
24.05.2023 07:48 8,0 C 8,3 C 5,0 C 92 % 1024,6 hPa 0,0 l/m 0 min 0 min 104 W/m 3,2 km/h (1 Bft) 97,87 %
24.05.2023 07:50 8,1 C 8,3 C 5,0 C 92 % 1024,6 hPa 0,0 l/m 0 min 0 min 106 W/m 0,0 km/h (0 Bft) 97,87 %
24.05.2023 07:52 8,1 C 8,9 C 5,0 C 92 % 1024,6 hPa 0,0 l/m 0 min 0 min 87 W/m 3,2 km/h (1 Bft) 100,00 %
24.05.2023 07:54 8,2 C 8,9 C 5,6 C 92 % 1024,6 hPa 0,0 l/m 0 min 0 min 91 W/m 3,2 km/h (1 Bft) 100,00 %
24.05.2023 07:56 8,2 C 8,9 C 5,6 C 92 % 1024,6 hPa 0,0 l/m 0 min 0 min 105 W/m 3,2 km/h (1 Bft) 48,72 %
24.05.2023 07:58 8,3 C 8,9 C 5,6 C 92 % 1024,6 hPa 0,0 l/m 0 min 0 min 119 W/m 6,4 km/h (2 Bft) 100,00 %
24.05.2023 08:00 8,3 C 8,9 C 5,6 C 92 % 1024,6 hPa 0,0 l/m 0 min 0 min 136 W/m 3,2 km/h (1 Bft) 100,00 %
24.05.2023 08:02 8,4 C 9,4 C 5,6 C 92 % 1024,6 hPa 0,0 l/m 0 min 0 min 147 W/m 6,4 km/h (2 Bft) 97,87 %
24.05.2023 08:04 8,4 C 9,4 C 5,6 C 92 % 1024,6 hPa 0,0 l/m 2 min 0 min 199 W/m 6,4 km/h (2 Bft) 100,00 %
24.05.2023 08:06 8,6 C 10,0 C 5,6 C 92 % 1024,6 hPa 0,0 l/m 2 min 0 min 222 W/m 6,4 km/h (2 Bft) 100,00 %
24.05.2023 08:08 8,6 C 10,0 C 5,6 C 92 % 1024,6 hPa 0,0 l/m 2 min 0 min 231 W/m 3,2 km/h (1 Bft) 95,74 %
24.05.2023 08:10 8,7 C 10,0 C 5,6 C 92 % 1024,6 hPa 0,0 l/m 2 min 0 min 197 W/m 3,2 km/h (1 Bft) 97,87 %
24.05.2023 08:12 8,8 C 10,0 C 5,6 C 92 % 1024,5 hPa 0,0 l/m 0 min 0 min 137 W/m 3,2 km/h (1 Bft) 100,00 %
24.05.2023 08:14 8,8 C 10,6 C 5,6 C 91 % 1024,5 hPa 0,0 l/m 0 min 0 min 172 W/m 6,4 km/h (2 Bft) 100,00 %
24.05.2023 08:16 8,9 C 10,6 C 6,1 C 91 % 1024,5 hPa 0,0 l/m 0 min 0 min 152 W/m 3,2 km/h (1 Bft) 100,00 %
24.05.2023 08:18 8,9 C 11,1 C 6,1 C 91 % 1024,5 hPa 0,0 l/m 2 min 0 min 240 W/m 6,4 km/h (2 Bft) 100,00 %
24.05.2023 08:20 9,1 C 12,2 C 6,1 C 91 % 1024,4 hPa 0,0 l/m 2 min 0 min 321 W/m 6,4 km/h (2 Bft) 100,00 %
24.05.2023 08:22 9,1 C 12,8 C 6,1 C 90 % 1024,4 hPa 0,0 l/m 2 min 0 min 319 W/m 3,2 km/h (1 Bft) 95,74 %
24.05.2023 08:24 9,2 C 13,3 C 6,7 C 90 % 1024,4 hPa 0,0 l/m 2 min 0 min 349 W/m 6,4 km/h (2 Bft) 100,00 %
24.05.2023 08:26 9,3 C 13,9 C 6,7 C 90 % 1024,4 hPa 0,0 l/m 2 min 0 min 348 W/m 9,7 km/h (2 Bft) 100,00 %
24.05.2023 08:28 9,4 C 13,3 C 6,7 C 90 % 1024,4 hPa 0,0 l/m 2 min 0 min 265 W/m 6,4 km/h (2 Bft) 95,74 %
24.05.2023 08:30 9,6 C 12,8 C 6,7 C 90 % 1024,5 hPa 0,0 l/m 2 min 0 min 266 W/m 3,2 km/h (1 Bft) 97,87 %
24.05.2023 08:32 9,7 C 13,3 C 7,2 C 89 % 1024,5 hPa 0,0 l/m 2 min 0 min 301 W/m 3,2 km/h (1 Bft) 97,87 %
24.05.2023 08:34 9,8 C 13,3 C 7,2 C 89 % 1024,5 hPa 0,0 l/m 2 min 0 min 285 W/m 3,2 km/h (1 Bft) 97,87 %
24.05.2023 08:36 9,9 C 12,8 C 7,2 C 88 % 1024,6 hPa 0,0 l/m 0 min 0 min 207 W/m 6,4 km/h (2 Bft) 100,00 %
24.05.2023 08:38 10,1 C 12,2 C 7,2 C 88 % 1024,7 hPa 0,0 l/m 0 min 0 min 160 W/m 6,4 km/h (2 Bft) 95,74 %
24.05.2023 08:40 10,1 C 11,7 C 7,2 C 87 % 1024,8 hPa 0,0 l/m 0 min 0 min 155 W/m 9,7 km/h (2 Bft) 93,48 %
24.05.2023 08:42 10,2 C 11,7 C 7,2 C 87 % 1024,8 hPa 0,0 l/m 0 min 0 min 184 W/m 12,9 km/h (3 Bft) 95,74 %
24.05.2023 08:44 10,2 C 11,7 C 7,2 C 87 % 1024,8 hPa 0,0 l/m 0 min 0 min 212 W/m 12,9 km/h (3 Bft) 97,87 %
24.05.2023 08:46 10,3 C 11,1 C 7,2 C 86 % 1024,8 hPa 0,0 l/m 0 min 0 min 217 W/m 12,9 km/h (3 Bft) 91,49 %
24.05.2023 08:48 10,3 C 12,2 C 7,2 C 86 % 1024,8 hPa 0,0 l/m 2 min 0 min 236 W/m 9,7 km/h (2 Bft) 95,74 %
24.05.2023 08:50 10,4 C 11,7 C 7,2 C 86 % 1024,7 hPa 0,0 l/m 2 min 0 min 237 W/m 6,4 km/h (2 Bft) 95,74 %
24.05.2023 08:52 10,4 C 11,7 C 7,2 C 86 % 1024,8 hPa 0,0 l/m 2 min 0 min 245 W/m 6,4 km/h (2 Bft) 87,23 %
24.05.2023 08:54 10,5 C 11,7 C 7,2 C 86 % 1024,8 hPa 0,0 l/m 0 min 0 min 208 W/m 9,7 km/h (2 Bft) 87,23 %
24.05.2023 08:56 10,6 C 11,7 C 7,2 C 85 % 1024,7 hPa 0,0 l/m 0 min 0 min 213 W/m 9,7 km/h (2 Bft) 94,29 %
24.05.2023 08:58 10,6 C 11,7 C 7,2 C 85 % 1024,8 hPa 0,0 l/m 0 min 0 min 215 W/m 6,4 km/h (2 Bft) 94,55 %
24.05.2023 09:00 10,6 C 12,2 C 7,8 C 85 % 1024,8 hPa 0,0 l/m 2 min 0 min 269 W/m 0,0 km/h (0 Bft) 95,74 %
24.05.2023 09:02 10,7 C 12,8 C 7,8 C 85 % 1024,7 hPa 0,0 l/m 2 min 0 min 346 W/m 12,9 km/h (3 Bft) 91,30 %
24.05.2023 09:04 10,8 C 12,8 C 7,8 C 85 % 1024,7 hPa 0,0 l/m 2 min 0 min 267 W/m 12,9 km/h (3 Bft) 94,00 %
24.05.2023 09:06 10,8 C 13,9 C 8,3 C 85 % 1024,8 hPa 0,0 l/m 2 min 0 min 308 W/m 9,7 km/h (2 Bft) 93,75 %
24.05.2023 09:08 11,0 C 15,0 C 8,9 C 85 % 1024,7 hPa 0,0 l/m 2 min 0 min 457 W/m 9,7 km/h (2 Bft) 94,29 %
24.05.2023 09:10 11,1 C 16,1 C 8,9 C 85 % 1024,8 hPa 0,0 l/m 2 min 0 min 446 W/m 9,7 km/h (2 Bft) 93,62 %
24.05.2023 09:12 11,3 C 16,1 C 8,9 C 85 % 1024,8 hPa 0,0 l/m 2 min 0 min 374 W/m 12,9 km/h (3 Bft) 91,30 %
24.05.2023 09:14 11,4 C 16,1 C 9,4 C 84 % 1024,8 hPa 0,0 l/m 2 min 0 min 399 W/m 16,1 km/h (3 Bft) 93,62 %
24.05.2023 09:16 11,5 C 16,1 C 9,4 C 83 % 1024,8 hPa 0,0 l/m 2 min 0 min 466 W/m 12,9 km/h (3 Bft) 95,74 %
24.05.2023 09:18 11,6 C 16,7 C 9,4 C 83 % 1024,8 hPa 0,0 l/m 2 min 0 min 500 W/m 9,7 km/h (2 Bft) 93,62 %
24.05.2023 09:20 11,8 C 17,2 C 10,0 C 83 % 1024,9 hPa 0,0 l/m 2 min 0 min 491 W/m 12,9 km/h (3 Bft) 91,49 %
24.05.2023 09:22 11,9 C 17,2 C 10,0 C 83 % 1024,8 hPa 0,0 l/m 2 min 0 min 497 W/m 6,4 km/h (2 Bft) 93,62 %
24.05.2023 09:24 12,1 C 17,2 C 10,0 C 81 % 1024,8 hPa 0,0 l/m 2 min 0 min 507 W/m 9,7 km/h (2 Bft) 93,62 %
24.05.2023 09:26 12,2 C 17,8 C 10,6 C 81 % 1024,8 hPa 0,0 l/m 2 min 0 min 524 W/m 9,7 km/h (2 Bft) 93,48 %
24.05.2023 09:28 12,4 C 18,3 C 10,6 C 80 % 1024,8 hPa 0,0 l/m 2 min 0 min 569 W/m 12,9 km/h (3 Bft) 91,49 %
24.05.2023 09:30 12,4 C 16,1 C 10,0 C 79 % 1024,8 hPa 0,0 l/m 2 min 0 min 420 W/m 6,4 km/h (2 Bft) 93,62 %
24.05.2023 09:32 12,4 C 14,4 C 9,4 C 79 % 1024,8 hPa 0,0 l/m 0 min 0 min 230 W/m 6,4 km/h (2 Bft) 93,62 %
24.05.2023 09:34 12,5 C 14,4 C 9,4 C 79 % 1024,8 hPa 0,0 l/m 2 min 0 min 305 W/m 16,1 km/h (3 Bft) 95,74 %
24.05.2023 09:36 12,5 C 14,4 C 9,4 C 79 % 1024,9 hPa 0,0 l/m 2 min 0 min 334 W/m 19,3 km/h (3 Bft) 91,49 %
24.05.2023 09:38 12,5 C 13,9 C 8,9 C 78 % 1024,9 hPa 0,0 l/m 0 min 0 min 275 W/m 12,9 km/h (3 Bft) 93,62 %
24.05.2023 09:40 12,5 C 13,9 C 8,9 C 78 % 1024,9 hPa 0,0 l/m 0 min 0 min 184 W/m 6,4 km/h (2 Bft) 95,65 %
24.05.2023 09:42 12,5 C 13,9 C 8,9 C 78 % 1024,8 hPa 0,0 l/m 0 min 0 min 164 W/m 6,4 km/h (2 Bft) 93,62 %
24.05.2023 09:44 12,5 C 13,3 C 8,9 C 78 % 1024,9 hPa 0,0 l/m 0 min 0 min 153 W/m 9,7 km/h (2 Bft) 95,74 %
24.05.2023 09:46 12,5 C 13,3 C 8,3 C 78 % 1024,9 hPa 0,0 l/m 0 min 0 min 158 W/m 12,9 km/h (3 Bft) 95,74 %
24.05.2023 09:48 12,4 C 12,8 C 8,3 C 78 % 1024,9 hPa 0,0 l/m 0 min 0 min 192 W/m 12,9 km/h (3 Bft) 97,87 %
24.05.2023 09:50 12,3 C 12,8 C 8,3 C 78 % 1024,9 hPa 0,0 l/m 0 min 0 min 211 W/m 12,9 km/h (3 Bft) 95,74 %
24.05.2023 09:52 12,3 C 12,2 C 8,3 C 78 % 1024,9 hPa 0,0 l/m 0 min 0 min 218 W/m 22,5 km/h (4 Bft) 97,83 %
24.05.2023 09:54 12,2 C 12,2 C 8,3 C 78 % 1024,8 hPa 0,0 l/m 0 min 0 min 221 W/m 9,7 km/h (2 Bft) 97,87 %
24.05.2023 09:56 12,2 C 12,8 C 8,3 C 78 % 1024,9 hPa 0,0 l/m 0 min 0 min 238 W/m 6,4 km/h (2 Bft) 97,87 %
24.05.2023 09:58 12,2 C 12,8 C 8,9 C 79 % 1024,8 hPa 0,0 l/m 0 min 0 min 251 W/m 9,7 km/h (2 Bft) 97,87 %
24.05.2023 10:00 12,2 C 12,8 C 8,9 C 79 % 1024,8 hPa 0,0 l/m 0 min 0 min 260 W/m 9,7 km/h (2 Bft) 97,87 %
24.05.2023 10:02 12,2 C 12,8 C 8,9 C 79 % 1024,8 hPa 0,0 l/m 0 min 0 min 266 W/m 9,7 km/h (2 Bft) 95,74 %
24.05.2023 10:04 12,3 C 12,8 C 8,9 C 79 % 1024,8 hPa 0,0 l/m 0 min 0 min 272 W/m 6,4 km/h (2 Bft) 97,92 %
24.05.2023 10:06 12,3 C 13,3 C 8,9 C 79 % 1024,8 hPa 0,0 l/m 0 min 0 min 285 W/m 9,7 km/h (2 Bft) 96,61 %
24.05.2023 10:08 12,4 C 13,9 C 9,4 C 79 % 1024,8 hPa 0,0 l/m 0 min 0 min 304 W/m 3,2 km/h (1 Bft) 100,00 %
24.05.2023 10:10 12,5 C 14,4 C 9,4 C 79 % 1024,8 hPa 0,0 l/m 2 min 0 min 332 W/m 12,9 km/h (3 Bft) 97,87 %
24.05.2023 10:12 12,6 C 14,4 C 9,4 C 78 % 1024,8 hPa 0,0 l/m 0 min 0 min 315 W/m 12,9 km/h (3 Bft) 97,87 %
24.05.2023 10:14 12,6 C 13,9 C 9,4 C 78 % 1024,8 hPa 0,0 l/m 0 min 0 min 209 W/m 12,9 km/h (3 Bft) 97,87 %
24.05.2023 10:16 12,6 C 13,3 C 8,9 C 77 % 1024,8 hPa 0,0 l/m 0 min 0 min 195 W/m 16,1 km/h (3 Bft) 97,87 %
24.05.2023 10:18 12,6 C 13,3 C 8,9 C 77 % 1024,7 hPa 0,0 l/m 0 min 0 min 215 W/m 9,7 km/h (2 Bft) 97,83 %
24.05.2023 10:20 12,6 C 13,3 C 9,4 C 77 % 1024,7 hPa 0,0 l/m 0 min 0 min 298 W/m 19,3 km/h (3 Bft) 97,87 %
24.05.2023 10:22 12,7 C 13,3 C 9,4 C 77 % 1024,7 hPa 0,0 l/m 2 min 0 min 335 W/m 16,1 km/h (3 Bft) 95,74 %
24.05.2023 10:24 12,7 C 13,3 C 9,4 C 77 % 1024,7 hPa 0,0 l/m 2 min 0 min 329 W/m 19,3 km/h (3 Bft) 100,00 %
24.05.2023 10:26 12,7 C 13,3 C 9,4 C 77 % 1024,7 hPa 0,0 l/m 2 min 0 min 349 W/m 12,9 km/h (3 Bft) 100,00 %
24.05.2023 10:28 12,7 C 13,3 C 9,4 C 77 % 1024,8 hPa 0,0 l/m 2 min 0 min 342 W/m 12,9 km/h (3 Bft) 100,00 %
24.05.2023 10:30 12,7 C 13,9 C 9,4 C 77 % 1024,7 hPa 0,0 l/m 0 min 0 min 318 W/m 12,9 km/h (3 Bft) 97,87 %
24.05.2023 10:32 12,8 C 13,9 C 9,4 C 76 % 1024,8 hPa 0,0 l/m 0 min 0 min 313 W/m 16,1 km/h (3 Bft) 100,00 %
24.05.2023 10:34 12,8 C 13,9 C 9,4 C 75 % 1024,8 hPa 0,0 l/m 0 min 0 min 325 W/m 16,1 km/h (3 Bft) 97,87 %
24.05.2023 10:36 12,8 C 13,9 C 9,4 C 76 % 1024,7 hPa 0,0 l/m 2 min 0 min 347 W/m 6,4 km/h (2 Bft) 95,74 %
24.05.2023 10:38 12,9 C 14,4 C 10,0 C 76 % 1024,8 hPa 0,0 l/m 0 min 0 min 338 W/m 6,4 km/h (2 Bft) 100,00 %
24.05.2023 10:40 13,1 C 14,4 C 10,0 C 76 % 1024,8 hPa 0,0 l/m 2 min 0 min 348 W/m 6,4 km/h (2 Bft) 100,00 %
24.05.2023 10:42 13,1 C 14,4 C 10,0 C 76 % 1024,8 hPa 0,0 l/m 0 min 0 min 335 W/m 19,3 km/h (3 Bft) 100,00 %
24.05.2023 10:44 13,2 C 15,0 C 10,6 C 75 % 1024,8 hPa 0,0 l/m 2 min 0 min 476 W/m 16,1 km/h (3 Bft) 97,87 %
24.05.2023 10:46 13,3 C 15,0 C 10,6 C 74 % 1024,8 hPa 0,0 l/m 2 min 0 min 506 W/m 16,1 km/h (3 Bft) 97,83 %
24.05.2023 10:48 13,4 C 15,6 C 10,6 C 74 % 1024,8 hPa 0,0 l/m 2 min 0 min 450 W/m 9,7 km/h (2 Bft) 100,00 %
24.05.2023 10:50 13,4 C 15,0 C 10,6 C 74 % 1024,7 hPa 0,0 l/m 2 min 0 min 382 W/m 19,3 km/h (3 Bft) 97,87 %
24.05.2023 10:52 13,4 C 14,4 C 10,0 C 73 % 1024,8 hPa 0,0 l/m 0 min 0 min 179 W/m 16,1 km/h (3 Bft) 100,00 %
24.05.2023 10:54 13,4 C 13,3 C 9,4 C 73 % 1024,7 hPa 0,0 l/m 0 min 0 min 158 W/m 12,9 km/h (3 Bft) 97,87 %
24.05.2023 10:56 13,3 C 12,8 C 9,4 C 73 % 1024,7 hPa 0,0 l/m 0 min 0 min 158 W/m 22,5 km/h (4 Bft) 100,00 %
24.05.2023 10:58 13,3 C 12,8 C 8,9 C 73 % 1024,7 hPa 0,0 l/m 0 min 0 min 154 W/m 16,1 km/h (3 Bft) 100,00 %
24.05.2023 11:00 13,2 C 12,8 C 8,9 C 73 % 1024,7 hPa 0,0 l/m 0 min 0 min 146 W/m 9,7 km/h (2 Bft) 100,00 %
24.05.2023 11:02 13,2 C 12,2 C 8,9 C 73 % 1024,7 hPa 0,0 l/m 0 min 0 min 146 W/m 12,9 km/h (3 Bft) 97,87 %
24.05.2023 11:04 13,1 C 12,8 C 8,9 C 74 % 1024,7 hPa 0,0 l/m 0 min 0 min 152 W/m 16,1 km/h (3 Bft) 93,75 %
24.05.2023 11:06 13,1 C 12,2 C 8,9 C 74 % 1024,7 hPa 0,0 l/m 0 min 0 min 165 W/m 19,3 km/h (3 Bft) 81,03 %
24.05.2023 11:08 13,0 C 12,2 C 8,9 C 74 % 1024,7 hPa 0,0 l/m 0 min 0 min 181 W/m 6,4 km/h (2 Bft) 94,29 %
24.05.2023 11:10 12,9 C 12,8 C 8,9 C 75 % 1024,7 hPa 0,0 l/m 0 min 0 min 185 W/m 9,7 km/h (2 Bft) 91,49 %
24.05.2023 11:12 12,9 C 12,2 C 8,9 C 75 % 1024,7 hPa 0,0 l/m 0 min 0 min 197 W/m 3,2 km/h (1 Bft) 89,36 %
24.05.2023 11:14 12,8 C 12,8 C 8,9 C 75 % 1024,6 hPa 0,0 l/m 0 min 0 min 229 W/m 12,9 km/h (3 Bft) 93,62 %
24.05.2023 11:16 12,8 C 13,3 C 9,4 C 75 % 1024,6 hPa 0,0 l/m 0 min 0 min 282 W/m 6,4 km/h (2 Bft) 89,36 %
24.05.2023 11:18 12,9 C 14,4 C 9,4 C 76 % 1024,6 hPa 0,0 l/m 0 min 0 min 301 W/m 3,2 km/h (1 Bft) 82,98 %
24.05.2023 11:20 13,1 C 15,6 C 10,0 C 76 % 1024,6 hPa 0,0 l/m 0 min 0 min 301 W/m 12,9 km/h (3 Bft) 82,61 %
24.05.2023 11:22 13,2 C 16,1 C 10,6 C 76 % 1024,6 hPa 0,0 l/m 0 min 0 min 309 W/m 12,9 km/h (3 Bft) 78,72 %
24.05.2023 11:24 13,3 C 16,1 C 10,6 C 75 % 1024,6 hPa 0,0 l/m 2 min 0 min 429 W/m 9,7 km/h (2 Bft) 63,83 %
24.05.2023 11:26 13,5 C 15,6 C 10,6 C 75 % 1024,6 hPa 0,0 l/m 0 min 0 min 367 W/m 12,9 km/h (3 Bft) 80,85 %
24.05.2023 11:28 13,6 C 15,0 C 10,6 C 74 % 1024,6 hPa 0,0 l/m 0 min 0 min 331 W/m 6,4 km/h (2 Bft) 91,49 %
24.05.2023 11:30 13,6 C 15,0 C 10,0 C 73 % 1024,6 hPa 0,0 l/m 0 min 0 min 263 W/m 12,9 km/h (3 Bft) 93,62 %
24.05.2023 11:32 13,6 C 14,4 C 10,0 C 73 % 1024,5 hPa 0,0 l/m 0 min 0 min 214 W/m 9,7 km/h (2 Bft) 93,62 %
24.05.2023 11:34 13,6 C 13,9 C 10,0 C 73 % 1024,6 hPa 0,0 l/m 0 min 0 min 180 W/m 12,9 km/h (3 Bft) 95,65 %
24.05.2023 11:36 13,7 C 13,9 C 9,4 C 73 % 1024,6 hPa 0,0 l/m 0 min 0 min 159 W/m 6,4 km/h (2 Bft) 93,62 %
24.05.2023 11:38 13,6 C 13,9 C 9,4 C 73 % 1024,6 hPa 0,0 l/m 0 min 0 min 144 W/m 3,2 km/h (1 Bft) 95,74 %
24.05.2023 11:40 13,6 C 13,3 C 9,4 C 73 % 1024,6 hPa 0,0 l/m 0 min 0 min 137 W/m 3,2 km/h (1 Bft) 93,62 %
24.05.2023 11:42 13,6 C 13,3 C 9,4 C 73 % 1024,6 hPa 0,0 l/m 0 min 0 min 142 W/m 12,9 km/h (3 Bft) 95,74 %
24.05.2023 11:44 13,6 C 13,3 C 9,4 C 72 % 1024,6 hPa 0,0 l/m 0 min 0 min 145 W/m 16,1 km/h (3 Bft) 95,74 %
24.05.2023 11:46 13,5 C 13,3 C 9,4 C 73 % 1024,6 hPa 0,0 l/m 0 min 0 min 149 W/m 6,4 km/h (2 Bft) 91,49 %
24.05.2023 11:48 13,4 C 13,3 C 9,4 C 73 % 1024,6 hPa 0,0 l/m 0 min 0 min 165 W/m 6,4 km/h (2 Bft) 95,65 %
24.05.2023 11:50 13,4 C 13,3 C 9,4 C 73 % 1024,6 hPa 0,0 l/m 0 min 0 min 216 W/m 9,7 km/h (2 Bft) 97,87 %
24.05.2023 11:52 13,4 C 13,9 C 9,4 C 73 % 1024,6 hPa 0,0 l/m 0 min 0 min 341 W/m 9,7 km/h (2 Bft) 95,74 %
24.05.2023 11:54 13,4 C 15,0 C 10,0 C 73 % 1024,6 hPa 0,0 l/m 2 min 0 min 412 W/m 9,7 km/h (2 Bft) 95,74 %
24.05.2023 11:56 13,6 C 15,6 C 10,6 C 74 % 1024,6 hPa 0,0 l/m 2 min 0 min 424 W/m 12,9 km/h (3 Bft) 97,87 %
24.05.2023 11:58 13,7 C 16,1 C 10,6 C 74 % 1024,5 hPa 0,0 l/m 2 min 0 min 454 W/m 9,7 km/h (2 Bft) 95,74 %
24.05.2023 12:00 13,7 C 15,6 C 10,6 C 74 % 1024,5 hPa 0,0 l/m 0 min 0 min 354 W/m 12,9 km/h (3 Bft) 97,87 %
24.05.2023 12:02 13,8 C 15,0 C 10,6 C 73 % 1024,4 hPa 0,0 l/m 0 min 0 min 280 W/m 6,4 km/h (2 Bft) 95,65 %
24.05.2023 12:04 13,8 C 15,0 C 10,6 C 72 % 1024,4 hPa 0,0 l/m 0 min 0 min 318 W/m 12,9 km/h (3 Bft) 95,74 %
24.05.2023 12:07 13,9 C 15,6 C 11,1 C 72 % 1024,4 hPa 0,0 l/m 3 min 0 min 445 W/m 12,9 km/h (3 Bft) 95,74 %
24.05.2023 12:08 13,9 C 15,6 C 11,1 C 72 % 1024,4 hPa 0,0 l/m 1 min 0 min 408 W/m 16,1 km/h (3 Bft) 98,96 %
24.05.2023 12:10 14,0 C 16,1 C 11,1 C 72 % 1024,4 hPa 0,0 l/m 2 min 0 min 489 W/m 6,4 km/h (2 Bft) 97,87 %
24.05.2023 12:12 14,1 C 18,3 C 12,2 C 73 % 1024,4 hPa 0,0 l/m 2 min 0 min 512 W/m 16,1 km/h (3 Bft) 100,00 %
24.05.2023 12:14 14,3 C 17,8 C 12,8 C 72 % 1024,4 hPa 0,0 l/m 2 min 0 min 636 W/m 12,9 km/h (3 Bft) 97,87 %
24.05.2023 12:16 14,3 C 18,9 C 13,9 C 72 % 1024,4 hPa 0,0 l/m 2 min 0 min 704 W/m 19,3 km/h (3 Bft) 97,83 %
24.05.2023 12:18 14,4 C 18,3 C 13,9 C 71 % 1024,3 hPa 0,0 l/m 2 min 0 min 740 W/m 12,9 km/h (3 Bft) 97,87 %
24.05.2023 12:20 14,6 C 17,8 C 13,9 C 71 % 1024,4 hPa 0,0 l/m 2 min 0 min 740 W/m 9,7 km/h (2 Bft) 100,00 %
24.05.2023 12:22 14,7 C 17,2 C 12,8 C 71 % 1024,4 hPa 0,0 l/m 0 min 0 min 388 W/m 12,9 km/h (3 Bft) 95,74 %
24.05.2023 12:24 14,7 C 16,7 C 12,2 C 69 % 1024,4 hPa 0,0 l/m 0 min 0 min 321 W/m 16,1 km/h (3 Bft) 97,87 %
24.05.2023 12:26 14,7 C 16,1 C 11,7 C 70 % 1024,4 hPa 0,0 l/m 0 min 0 min 298 W/m 16,1 km/h (3 Bft) 97,87 %
24.05.2023 12:28 14,7 C 16,1 C 11,7 C 69 % 1024,4 hPa 0,0 l/m 0 min 0 min 336 W/m 22,5 km/h (4 Bft) 100,00 %
24.05.2023 12:30 14,8 C 16,7 C 12,2 C 68 % 1024,4 hPa 0,0 l/m 2 min 0 min 448 W/m 19,3 km/h (3 Bft) 100,00 %
24.05.2023 12:32 14,8 C 16,7 C 11,7 C 68 % 1024,4 hPa 0,0 l/m 2 min 0 min 503 W/m 19,3 km/h (3 Bft) 100,00 %
24.05.2023 12:34 14,8 C 16,7 C 12,2 C 68 % 1024,4 hPa 0,0 l/m 2 min 0 min 413 W/m 16,1 km/h (3 Bft) 100,00 %
24.05.2023 12:36 14,9 C 16,1 C 11,7 C 67 % 1024,4 hPa 0,0 l/m 0 min 0 min 404 W/m 12,9 km/h (3 Bft) 100,00 %
24.05.2023 12:38 14,9 C 16,7 C 11,7 C 67 % 1024,4 hPa 0,0 l/m 2 min 0 min 442 W/m 9,7 km/h (2 Bft) 100,00 %
24.05.2023 12:40 14,9 C 16,7 C 11,7 C 67 % 1024,4 hPa 0,0 l/m 2 min 0 min 505 W/m 16,1 km/h (3 Bft) 97,87 %
24.05.2023 12:42 15,0 C 17,2 C 11,7 C 67 % 1024,4 hPa 0,0 l/m 2 min 0 min 439 W/m 9,7 km/h (2 Bft) 97,14 %
24.05.2023 12:44 15,1 C 16,7 C 12,2 C 66 % 1024,4 hPa 0,0 l/m 2 min 0 min 417 W/m 19,3 km/h (3 Bft) 100,00 %
24.05.2023 12:46 15,1 C 16,7 C 11,7 C 66 % 1024,3 hPa 0,0 l/m 0 min 0 min 335 W/m 19,3 km/h (3 Bft) 100,00 %
24.05.2023 12:48 15,1 C 16,1 C 11,7 C 66 % 1024,3 hPa 0,0 l/m 0 min 0 min 275 W/m 19,3 km/h (3 Bft) 100,00 %
24.05.2023 12:50 15,0 C 15,6 C 11,1 C 65 % 1024,3 hPa 0,0 l/m 0 min 0 min 255 W/m 19,3 km/h (3 Bft) 97,87 %
24.05.2023 12:52 14,9 C 15,0 C 11,1 C 65 % 1024,3 hPa 0,0 l/m 0 min 0 min 264 W/m 16,1 km/h (3 Bft) 97,87 %
24.05.2023 12:54 14,9 C 15,0 C 11,1 C 66 % 1024,3 hPa 0,0 l/m 0 min 0 min 280 W/m 16,1 km/h (3 Bft) 95,74 %
24.05.2023 12:56 14,9 C 15,6 C 11,1 C 67 % 1024,3 hPa 0,0 l/m 0 min 0 min 357 W/m 12,9 km/h (3 Bft) 100,00 %
24.05.2023 12:58 14,8 C 16,1 C 11,7 C 66 % 1024,2 hPa 0,0 l/m 2 min 0 min 481 W/m 22,5 km/h (4 Bft) 95,65 %
24.05.2023 13:00 14,8 C 16,1 C 11,7 C 66 % 1024,2 hPa 0,0 l/m 2 min 0 min 523 W/m 29,0 km/h (5 Bft) 95,74 %
24.05.2023 13:02 14,8 C 16,7 C 12,2 C 66 % 1024,2 hPa 0,0 l/m 2 min 0 min 481 W/m 19,3 km/h (3 Bft) 100,00 %
24.05.2023 13:04 14,9 C 18,3 C 13,3 C 66 % 1024,2 hPa 0,0 l/m 2 min 0 min 499 W/m 16,1 km/h (3 Bft) 100,00 %
24.05.2023 13:06 15,2 C 20,0 C 14,4 C 66 % 1024,2 hPa 0,0 l/m 2 min 0 min 499 W/m 19,3 km/h (3 Bft) 100,00 %
24.05.2023 13:08 15,3 C 18,3 C 13,9 C 65 % 1024,2 hPa 0,0 l/m 2 min 0 min 475 W/m 29,0 km/h (5 Bft) 97,87 %
24.05.2023 13:10 15,4 C 18,9 C 14,4 C 65 % 1024,2 hPa 0,0 l/m 2 min 0 min 501 W/m 16,1 km/h (3 Bft) 97,87 %
24.05.2023 13:12 15,6 C 19,4 C 14,4 C 66 % 1024,1 hPa 0,0 l/m 2 min 0 min 501 W/m 12,9 km/h (3 Bft) 100,00 %
24.05.2023 13:14 15,7 C 18,9 C 13,9 C 64 % 1024,2 hPa 0,0 l/m 2 min 0 min 511 W/m 16,1 km/h (3 Bft) 82,98 %
24.05.2023 13:16 15,7 C 17,8 C 13,3 C 62 % 1024,1 hPa 0,0 l/m 2 min 0 min 529 W/m 19,3 km/h (3 Bft) 95,74 %
24.05.2023 13:18 15,7 C 17,8 C 13,3 C 63 % 1024,2 hPa 0,0 l/m 2 min 0 min 576 W/m 22,5 km/h (4 Bft) 97,87 %
24.05.2023 13:20 15,7 C 17,8 C 13,3 C 63 % 1024,1 hPa 0,0 l/m 2 min 0 min 510 W/m 12,9 km/h (3 Bft) 95,74 %
24.05.2023 13:22 15,7 C 17,8 C 13,3 C 63 % 1024,1 hPa 0,0 l/m 2 min 0 min 505 W/m 16,1 km/h (3 Bft) 97,87 %
24.05.2023 13:24 15,7 C 17,2 C 12,8 C 62 % 1024,1 hPa 0,0 l/m 2 min 0 min 522 W/m 16,1 km/h (3 Bft) 95,74 %
24.05.2023 13:26 15,5 C 16,7 C 12,8 C 63 % 1024,1 hPa 0,0 l/m 0 min 0 min 407 W/m 12,9 km/h (3 Bft) 95,65 %
24.05.2023 13:28 15,5 C 16,7 C 12,8 C 64 % 1024,1 hPa 0,0 l/m 2 min 0 min 432 W/m 22,5 km/h (4 Bft) 95,74 %
24.05.2023 13:30 15,6 C 18,3 C 13,3 C 64 % 1024,0 hPa 0,0 l/m 2 min 0 min 553 W/m 16,1 km/h (3 Bft) 95,74 %
24.05.2023 13:32 15,7 C 19,4 C 15,0 C 64 % 1024,1 hPa 0,0 l/m 2 min 0 min 583 W/m 12,9 km/h (3 Bft) 93,62 %
24.05.2023 13:34 15,8 C 20,6 C 16,1 C 65 % 1024,0 hPa 0,0 l/m 2 min 0 min 689 W/m 19,3 km/h (3 Bft) 95,74 %
24.05.2023 13:36 16,0 C 21,7 C 17,2 C 64 % 1024,0 hPa 0,0 l/m 2 min 0 min 1178 W/m 16,1 km/h (3 Bft) 95,74 %
24.05.2023 13:38 16,1 C 20,6 C 15,6 C 64 % 1024,0 hPa 0,0 l/m 2 min 0 min 826 W/m 19,3 km/h (3 Bft) 95,74 %
24.05.2023 13:40 16,2 C 19,4 C 15,0 C 62 % 1024,0 hPa 0,0 l/m 2 min 0 min 816 W/m 9,7 km/h (2 Bft) 89,13 %
24.05.2023 13:42 16,3 C 18,3 C 13,9 C 62 % 1024,0 hPa 0,0 l/m 0 min 0 min 279 W/m 12,9 km/h (3 Bft) 95,74 %
24.05.2023 13:44 16,3 C 17,2 C 13,3 C 62 % 1024,0 hPa 0,0 l/m 0 min 0 min 178 W/m 16,1 km/h (3 Bft) 95,74 %
24.05.2023 13:46 16,2 C 16,7 C 12,8 C 63 % 1024,1 hPa 0,0 l/m 0 min 0 min 178 W/m 6,4 km/h (2 Bft) 97,87 %
24.05.2023 13:48 16,2 C 16,1 C 12,2 C 62 % 1024,0 hPa 0,0 l/m 0 min 0 min 182 W/m 16,1 km/h (3 Bft) 80,85 %
24.05.2023 13:50 16,1 C 16,1 C 11,7 C 62 % 1024,0 hPa 0,0 l/m 0 min 0 min 188 W/m 9,7 km/h (2 Bft) 80,85 %
24.05.2023 13:52 16,0 C 16,1 C 11,7 C 63 % 1024,0 hPa 0,0 l/m 0 min 0 min 189 W/m 12,9 km/h (3 Bft) 91,49 %
24.05.2023 13:54 15,9 C 16,1 C 11,7 C 63 % 1024,1 hPa 0,0 l/m 0 min 0 min 225 W/m 12,9 km/h (3 Bft) 95,65 %
24.05.2023 13:56 15,9 C 16,1 C 11,7 C 63 % 1024,1 hPa 0,0 l/m 0 min 0 min 299 W/m 12,9 km/h (3 Bft) 95,74 %
24.05.2023 13:58 15,8 C 16,1 C 11,7 C 63 % 1024,0 hPa 0,0 l/m 0 min 0 min 293 W/m 12,9 km/h (3 Bft) 91,89 %
24.05.2023 14:00 15,8 C 16,1 C 11,7 C 63 % 1024,0 hPa 0,0 l/m 0 min 0 min 263 W/m 12,9 km/h (3 Bft) 95,74 %
24.05.2023 14:02 15,8 C 16,1 C 11,7 C 63 % 1024,1 hPa 0,0 l/m 0 min 0 min 225 W/m 12,9 km/h (3 Bft) 94,44 %
24.05.2023 14:04 15,8 C 16,1 C 11,7 C 64 % 1024,0 hPa 0,0 l/m 0 min 0 min 207 W/m 9,7 km/h (2 Bft) 92,00 %
24.05.2023 14:06 15,7 C 16,1 C 11,7 C 64 % 1024,0 hPa 0,0 l/m 0 min 0 min 191 W/m 9,7 km/h (2 Bft) 89,80 %
24.05.2023 14:08 15,7 C 16,1 C 11,7 C 64 % 1024,0 hPa 0,0 l/m 0 min 0 min 163 W/m 12,9 km/h (3 Bft) 91,43 %
24.05.2023 14:10 15,6 C 15,6 C 11,7 C 63 % 1024,0 hPa 0,0 l/m 0 min 0 min 140 W/m 16,1 km/h (3 Bft) 93,62 %
24.05.2023 14:12 15,5 C 15,6 C 11,1 C 63 % 1024,0 hPa 0,0 l/m 0 min 0 min 124 W/m 12,9 km/h (3 Bft) 89,36 %
24.05.2023 14:14 15,4 C 15,6 C 11,1 C 63 % 1024,0 hPa 0,0 l/m 0 min 0 min 120 W/m 6,4 km/h (2 Bft) 93,62 %
24.05.2023 14:16 15,3 C 15,0 C 11,1 C 63 % 1024,0 hPa 0,0 l/m 0 min 0 min 118 W/m 12,9 km/h (3 Bft) 76,09 %
24.05.2023 14:18 15,2 C 15,0 C 11,1 C 64 % 1024,1 hPa 0,0 l/m 0 min 0 min 118 W/m 16,1 km/h (3 Bft) 87,23 %
24.05.2023 14:20 15,2 C 15,0 C 11,1 C 64 % 1024,0 hPa 0,0 l/m 0 min 0 min 124 W/m 16,1 km/h (3 Bft) 91,49 %
24.05.2023 14:22 15,1 C 15,0 C 10,6 C 64 % 1024,0 hPa 0,0 l/m 0 min 0 min 136 W/m 16,1 km/h (3 Bft) 93,62 %
24.05.2023 14:24 15,0 C 15,0 C 11,1 C 65 % 1024,0 hPa 0,0 l/m 0 min 0 min 153 W/m 9,7 km/h (2 Bft) 93,62 %
24.05.2023 14:26 14,9 C 15,0 C 10,6 C 65 % 1024,1 hPa 0,0 l/m 0 min 0 min 172 W/m 19,3 km/h (3 Bft) 95,74 %
24.05.2023 14:28 14,9 C 14,4 C 10,6 C 65 % 1024,1 hPa 0,0 l/m 0 min 0 min 187 W/m 12,9 km/h (3 Bft) 97,87 %
24.05.2023 14:30 14,8 C 15,0 C 11,1 C 66 % 1024,1 hPa 0,0 l/m 0 min 0 min 198 W/m 6,4 km/h (2 Bft) 97,83 %
24.05.2023 14:32 14,9 C 15,6 C 11,1 C 66 % 1024,1 hPa 0,0 l/m 0 min 0 min 207 W/m 12,9 km/h (3 Bft) 97,87 %
24.05.2023 14:34 14,9 C 15,6 C 11,1 C 66 % 1024,0 hPa 0,0 l/m 0 min 0 min 214 W/m 16,1 km/h (3 Bft) 95,74 %
24.05.2023 14:36 14,9 C 15,6 C 11,1 C 66 % 1024,0 hPa 0,0 l/m 0 min 0 min 220 W/m 9,7 km/h (2 Bft) 97,87 %
24.05.2023 14:38 14,9 C 15,6 C 11,1 C 66 % 1024,0 hPa 0,0 l/m 0 min 0 min 225 W/m 3,2 km/h (1 Bft) 100,00 %
24.05.2023 14:40 15,0 C 15,6 C 11,1 C 66 % 1024,1 hPa 0,0 l/m 0 min 0 min 221 W/m 9,7 km/h (2 Bft) 93,62 %
24.05.2023 14:42 15,1 C 16,1 C 11,1 C 65 % 1024,0 hPa 0,0 l/m 0 min 0 min 225 W/m 9,7 km/h (2 Bft) 95,74 %
24.05.2023 14:44 15,1 C 16,1 C 11,1 C 65 % 1024,0 hPa 0,0 l/m 0 min 0 min 242 W/m 6,4 km/h (2 Bft) 100,00 %
24.05.2023 14:46 15,2 C 16,1 C 11,1 C 65 % 1024,0 hPa 0,0 l/m 0 min 0 min 267 W/m 6,4 km/h (2 Bft) 95,74 %
24.05.2023 14:48 15,2 C 16,1 C 11,7 C 66 % 1024,0 hPa 0,0 l/m 0 min 0 min 289 W/m 12,9 km/h (3 Bft) 100,00 %
24.05.2023 14:50 15,3 C 16,1 C 11,7 C 66 % 1024,0 hPa 0,0 l/m 0 min 0 min 310 W/m 16,1 km/h (3 Bft) 97,87 %
24.05.2023 14:52 15,3 C 16,1 C 11,7 C 66 % 1024,1 hPa 0,0 l/m 0 min 0 min 334 W/m 16,1 km/h (3 Bft) 97,87 %
24.05.2023 14:54 15,3 C 15,6 C 11,7 C 64 % 1024,0 hPa 0,0 l/m 0 min 0 min 342 W/m 19,3 km/h (3 Bft) 82,98 %
24.05.2023 14:56 15,3 C 16,1 C 11,7 C 66 % 1024,0 hPa 0,0 l/m 0 min 0 min 325 W/m 12,9 km/h (3 Bft) 97,87 %
24.05.2023 14:58 15,3 C 16,1 C 11,7 C 65 % 1024,0 hPa 0,0 l/m 0 min 0 min 314 W/m 16,1 km/h (3 Bft) 89,36 %
24.05.2023 15:00 15,3 C 16,1 C 11,7 C 65 % 1024,0 hPa 0,0 l/m 0 min 0 min 324 W/m 12,9 km/h (3 Bft) 82,61 %
24.05.2023 15:02 15,4 C 16,7 C 11,7 C 65 % 1024,0 hPa 0,0 l/m 0 min 0 min 337 W/m 9,7 km/h (2 Bft) 85,11 %
24.05.2023 15:04 15,4 C 16,7 C 11,7 C 65 % 1024,0 hPa 0,0 l/m 0 min 0 min 332 W/m 16,1 km/h (3 Bft) 87,50 %
24.05.2023 15:06 15,5 C 16,7 C 11,7 C 65 % 1024,0 hPa 0,0 l/m 0 min 0 min 323 W/m 12,9 km/h (3 Bft) 87,23 %
24.05.2023 15:08 15,6 C 16,7 C 11,7 C 64 % 1024,0 hPa 0,0 l/m 0 min 0 min 312 W/m 12,9 km/h (3 Bft) 89,36 %
24.05.2023 15:10 15,6 C 17,2 C 12,2 C 65 % 1024,0 hPa 0,0 l/m 0 min 0 min 334 W/m 9,7 km/h (2 Bft) 100,00 %
24.05.2023 15:12 15,6 C 16,7 C 12,2 C 65 % 1024,0 hPa 0,0 l/m 0 min 0 min 359 W/m 9,7 km/h (2 Bft) 69,57 %
24.05.2023 15:14 15,7 C 16,7 C 12,2 C 64 % 1024,0 hPa 0,0 l/m 0 min 0 min 344 W/m 9,7 km/h (2 Bft) 78,72 %
24.05.2023 15:16 15,7 C 17,2 C 12,2 C 64 % 1024,0 hPa 0,0 l/m 0 min 0 min 355 W/m 12,9 km/h (3 Bft) 85,11 %
24.05.2023 15:18 15,7 C 17,2 C 12,2 C 64 % 1024,0 hPa 0,0 l/m 0 min 0 min 358 W/m 9,7 km/h (2 Bft) 100,00 %
24.05.2023 15:20 15,8 C 17,8 C 12,2 C 63 % 1024,1 hPa 0,0 l/m 0 min 0 min 353 W/m 12,9 km/h (3 Bft) 95,74 %
24.05.2023 15:22 15,9 C 17,8 C 12,2 C 64 % 1024,0 hPa 0,0 l/m 0 min 0 min 350 W/m 9,7 km/h (2 Bft) 97,87 %
24.05.2023 15:24 15,9 C 17,2 C 12,2 C 64 % 1024,0 hPa 0,0 l/m 0 min 0 min 316 W/m 16,1 km/h (3 Bft) 97,87 %
24.05.2023 15:26 15,9 C 17,2 C 12,2 C 63 % 1024,0 hPa 0,0 l/m 0 min 0 min 271 W/m 22,5 km/h (4 Bft) 97,83 %
24.05.2023 15:28 15,9 C 16,7 C 11,7 C 64 % 1024,0 hPa 0,0 l/m 0 min 0 min 238 W/m 9,7 km/h (2 Bft) 97,87 %
24.05.2023 15:30 15,9 C 16,7 C 11,7 C 64 % 1024,0 hPa 0,0 l/m 0 min 0 min 212 W/m 9,7 km/h (2 Bft) 97,87 %
24.05.2023 15:32 15,8 C 16,7 C 11,7 C 64 % 1023,9 hPa 0,0 l/m 0 min 0 min 211 W/m 6,4 km/h (2 Bft) 97,87 %
24.05.2023 15:34 15,8 C 16,1 C 11,7 C 63 % 1024,0 hPa 0,0 l/m 0 min 0 min 219 W/m 9,7 km/h (2 Bft) 97,87 %
24.05.2023 15:36 15,8 C 16,1 C 11,7 C 64 % 1024,0 hPa 0,0 l/m 0 min 0 min 244 W/m 6,4 km/h (2 Bft) 95,74 %
24.05.2023 15:38 15,8 C 16,7 C 11,7 C 64 % 1023,9 hPa 0,0 l/m 0 min 0 min 296 W/m 12,9 km/h (3 Bft) 95,74 %
24.05.2023 15:40 15,8 C 16,7 C 12,2 C 63 % 1023,9 hPa 0,0 l/m 0 min 0 min 360 W/m 16,1 km/h (3 Bft) 97,83 %
24.05.2023 15:42 15,8 C 18,3 C 12,2 C 63 % 1023,9 hPa 0,0 l/m 2 min 0 min 466 W/m 16,1 km/h (3 Bft) 97,87 %
24.05.2023 15:44 16,0 C 20,0 C 12,8 C 64 % 1023,8 hPa 0,0 l/m 2 min 0 min 630 W/m 9,7 km/h (2 Bft) 97,87 %
24.05.2023 15:46 16,2 C 20,6 C 12,8 C 63 % 1023,8 hPa 0,0 l/m 2 min 0 min 836 W/m 12,9 km/h (3 Bft) 97,87 %
24.05.2023 15:48 16,3 C 20,0 C 12,8 C 63 % 1023,8 hPa 0,0 l/m 2 min 0 min 512 W/m 12,9 km/h (3 Bft) 95,74 %
24.05.2023 15:50 16,4 C 19,4 C 12,8 C 62 % 1023,8 hPa 0,0 l/m 2 min 0 min 409 W/m 9,7 km/h (2 Bft) 97,87 %
24.05.2023 15:52 16,6 C 18,9 C 12,8 C 62 % 1023,8 hPa 0,0 l/m 0 min 0 min 361 W/m 12,9 km/h (3 Bft) 97,87 %
24.05.2023 15:54 16,6 C 18,9 C 12,8 C 62 % 1023,8 hPa 0,0 l/m 0 min 0 min 333 W/m 16,1 km/h (3 Bft) 97,83 %
24.05.2023 15:56 16,6 C 18,9 C 12,8 C 63 % 1023,8 hPa 0,0 l/m 0 min 0 min 345 W/m 9,7 km/h (2 Bft) 100,00 %
24.05.2023 15:58 16,7 C 20,6 C 12,8 C 63 % 1023,8 hPa 0,0 l/m 2 min 0 min 564 W/m 6,4 km/h (2 Bft) 100,00 %
24.05.2023 16:00 16,9 C 21,7 C 13,3 C 63 % 1023,8 hPa 0,0 l/m 2 min 0 min 875 W/m 16,1 km/h (3 Bft) 100,00 %
24.05.2023 16:02 17,1 C 22,8 C 13,3 C 62 % 1023,8 hPa 0,0 l/m 2 min 0 min 892 W/m 12,9 km/h (3 Bft) 100,00 %
24.05.2023 16:04 17,2 C 21,1 C 13,3 C 62 % 1023,7 hPa 0,0 l/m 2 min 0 min 747 W/m 12,9 km/h (3 Bft) 97,96 %
24.05.2023 16:06 17,3 C 20,0 C 12,8 C 60 % 1023,7 hPa 0,0 l/m 0 min 0 min 311 W/m 16,1 km/h (3 Bft) 97,87 %
24.05.2023 16:08 17,3 C 20,0 C 12,8 C 60 % 1023,7 hPa 0,0 l/m 0 min 0 min 311 W/m 19,3 km/h (3 Bft) 100,00 %
24.05.2023 16:10 17,3 C 20,6 C 13,3 C 60 % 1023,7 hPa 0,0 l/m 2 min 0 min 466 W/m 12,9 km/h (3 Bft) 100,00 %
24.05.2023 16:12 17,4 C 21,7 C 13,3 C 61 % 1023,7 hPa 0,0 l/m 2 min 0 min 810 W/m 6,4 km/h (2 Bft) 97,87 %
24.05.2023 16:14 17,6 C 22,8 C 13,3 C 60 % 1023,7 hPa 0,0 l/m 2 min 0 min 802 W/m 12,9 km/h (3 Bft) 100,00 %
24.05.2023 16:16 17,8 C 23,9 C 13,9 C 60 % 1023,8 hPa 0,0 l/m 2 min 0 min 933 W/m 9,7 km/h (2 Bft) 100,00 %
24.05.2023 16:18 18,0 C 23,9 C 13,9 C 59 % 1023,6 hPa 0,0 l/m 2 min 0 min 971 W/m 12,9 km/h (3 Bft) 100,00 %
24.05.2023 16:20 18,1 C 23,9 C 14,4 C 59 % 1023,7 hPa 0,0 l/m 2 min 0 min 980 W/m 12,9 km/h (3 Bft) 97,87 %
24.05.2023 16:22 18,3 C 23,9 C 14,4 C 59 % 1023,7 hPa 0,0 l/m 2 min 0 min 917 W/m 16,1 km/h (3 Bft) 100,00 %
24.05.2023 16:24 18,3 C 21,7 C 13,9 C 58 % 1023,7 hPa 0,0 l/m 2 min 0 min 520 W/m 16,1 km/h (3 Bft) 100,00 %
24.05.2023 16:26 18,2 C 19,4 C 13,9 C 58 % 1023,7 hPa 0,0 l/m 0 min 0 min 296 W/m 16,1 km/h (3 Bft) 100,00 %
24.05.2023 16:28 18,0 C 18,9 C 13,3 C 58 % 1023,8 hPa 0,0 l/m 0 min 0 min 228 W/m 12,9 km/h (3 Bft) 97,87 %
24.05.2023 16:30 17,8 C 17,8 C 12,8 C 59 % 1023,8 hPa 0,0 l/m 0 min 0 min 195 W/m 16,1 km/h (3 Bft) 95,74 %
24.05.2023 16:32 17,6 C 17,8 C 12,8 C 59 % 1023,8 hPa 0,0 l/m 0 min 0 min 176 W/m 6,4 km/h (2 Bft) 97,87 %
24.05.2023 16:34 17,4 C 16,7 C 12,8 C 59 % 1023,8 hPa 0,0 l/m 0 min 0 min 163 W/m 12,9 km/h (3 Bft) 97,87 %
24.05.2023 16:36 17,2 C 16,7 C 12,2 C 60 % 1023,8 hPa 0,0 l/m 0 min 0 min 157 W/m 12,9 km/h (3 Bft) 97,83 %
24.05.2023 16:38 17,1 C 16,7 C 12,2 C 60 % 1023,8 hPa 0,0 l/m 0 min 0 min 158 W/m 12,9 km/h (3 Bft) 97,87 %
24.05.2023 16:40 16,9 C 16,7 C 12,2 C 60 % 1023,8 hPa 0,0 l/m 0 min 0 min 168 W/m 6,4 km/h (2 Bft) 93,62 %
24.05.2023 16:42 16,7 C 16,1 C 12,2 C 61 % 1023,8 hPa 0,0 l/m 0 min 0 min 181 W/m 6,4 km/h (2 Bft) 95,74 %
24.05.2023 16:44 16,6 C 16,1 C 12,2 C 62 % 1023,8 hPa 0,0 l/m 0 min 0 min 191 W/m 6,4 km/h (2 Bft) 97,87 %
24.05.2023 16:46 16,5 C 16,1 C 12,2 C 62 % 1023,8 hPa 0,0 l/m 0 min 0 min 204 W/m 12,9 km/h (3 Bft) 97,87 %
24.05.2023 16:48 16,4 C 16,7 C 12,2 C 63 % 1023,8 hPa 0,0 l/m 0 min 0 min 236 W/m 6,4 km/h (2 Bft) 97,87 %
24.05.2023 16:50 16,4 C 16,7 C 12,2 C 63 % 1023,8 hPa 0,0 l/m 0 min 0 min 266 W/m 16,1 km/h (3 Bft) 95,65 %
24.05.2023 16:52 16,3 C 16,7 C 12,2 C 62 % 1023,8 hPa 0,0 l/m 0 min 0 min 277 W/m 12,9 km/h (3 Bft) 95,74 %
24.05.2023 16:54 16,3 C 16,7 C 12,2 C 62 % 1023,8 hPa 0,0 l/m 0 min 0 min 271 W/m 12,9 km/h (3 Bft) 93,62 %
24.05.2023 16:56 16,3 C 16,7 C 12,2 C 62 % 1023,8 hPa 0,0 l/m 0 min 0 min 246 W/m 6,4 km/h (2 Bft) 95,74 %
24.05.2023 16:58 16,3 C 16,7 C 12,2 C 62 % 1023,8 hPa 0,0 l/m 0 min 0 min 221 W/m 6,4 km/h (2 Bft) 97,87 %
24.05.2023 17:00 16,3 C 16,7 C 12,2 C 62 % 1023,8 hPa 0,0 l/m 0 min 0 min 211 W/m 12,9 km/h (3 Bft) 95,74 %
24.05.2023 17:02 16,3 C 16,1 C 12,2 C 63 % 1023,8 hPa 0,0 l/m 0 min 0 min 202 W/m 12,9 km/h (3 Bft) 95,74 %
24.05.2023 17:04 16,3 C 16,1 C 12,2 C 63 % 1023,8 hPa 0,0 l/m 0 min 0 min 204 W/m 6,4 km/h (2 Bft) 95,65 %
24.05.2023 17:06 16,3 C 16,1 C 12,2 C 64 % 1023,8 hPa 0,0 l/m 0 min 0 min 211 W/m 9,7 km/h (2 Bft) 95,74 %
24.05.2023 17:08 16,3 C 16,7 C 12,2 C 64 % 1023,8 hPa 0,0 l/m 0 min 0 min 224 W/m 9,7 km/h (2 Bft) 95,74 %
24.05.2023 17:10 16,3 C 16,7 C 12,2 C 64 % 1023,8 hPa 0,0 l/m 0 min 0 min 237 W/m 6,4 km/h (2 Bft) 93,62 %
24.05.2023 17:12 16,3 C 16,7 C 12,2 C 64 % 1023,8 hPa 0,0 l/m 0 min 0 min 246 W/m 12,9 km/h (3 Bft) 97,87 %
24.05.2023 17:14 16,3 C 17,2 C 12,2 C 64 % 1023,8 hPa 0,0 l/m 0 min 0 min 238 W/m 9,7 km/h (2 Bft) 95,74 %
24.05.2023 17:16 16,3 C 17,2 C 12,2 C 63 % 1023,7 hPa 0,0 l/m 0 min 0 min 226 W/m 6,4 km/h (2 Bft) 97,87 %
24.05.2023 17:18 16,3 C 16,7 C 12,2 C 63 % 1023,8 hPa 0,0 l/m 0 min 0 min 221 W/m 12,9 km/h (3 Bft) 97,83 %
24.05.2023 17:20 16,2 C 16,7 C 12,2 C 63 % 1023,7 hPa 0,0 l/m 0 min 0 min 229 W/m 12,9 km/h (3 Bft) 97,87 %
24.05.2023 17:22 16,2 C 16,7 C 12,2 C 63 % 1023,7 hPa 0,0 l/m 0 min 0 min 234 W/m 9,7 km/h (2 Bft) 95,74 %
24.05.2023 17:24 16,2 C 16,7 C 12,2 C 64 % 1023,8 hPa 0,0 l/m 0 min 0 min 237 W/m 6,4 km/h (2 Bft) 95,74 %
24.05.2023 17:26 16,3 C 16,7 C 12,2 C 64 % 1023,7 hPa 0,0 l/m 0 min 0 min 216 W/m 9,7 km/h (2 Bft) 95,74 %
24.05.2023 17:28 16,3 C 17,2 C 12,2 C 64 % 1023,7 hPa 0,0 l/m 0 min 0 min 210 W/m 6,4 km/h (2 Bft) 95,74 %
24.05.2023 17:30 16,3 C 17,2 C 12,2 C 64 % 1023,7 hPa 0,0 l/m 0 min 0 min 205 W/m 6,4 km/h (2 Bft) 95,74 %
24.05.2023 17:32 16,3 C 17,2 C 12,2 C 64 % 1023,7 hPa 0,0 l/m 0 min 0 min 204 W/m 6,4 km/h (2 Bft) 93,48 %
24.05.2023 17:34 16,3 C 16,7 C 12,2 C 63 % 1023,7 hPa 0,0 l/m 0 min 0 min 206 W/m 6,4 km/h (2 Bft) 95,74 %
24.05.2023 17:36 16,3 C 16,7 C 12,2 C 64 % 1023,8 hPa 0,0 l/m 0 min 0 min 211 W/m 6,4 km/h (2 Bft) 95,74 %
24.05.2023 17:38 16,3 C 16,7 C 12,2 C 64 % 1023,7 hPa 0,0 l/m 0 min 0 min 218 W/m 6,4 km/h (2 Bft) 95,74 %
24.05.2023 17:40 16,3 C 16,7 C 12,2 C 64 % 1023,7 hPa 0,0 l/m 0 min 0 min 229 W/m 6,4 km/h (2 Bft) 93,62 %
24.05.2023 17:42 16,3 C 16,7 C 12,2 C 64 % 1023,7 hPa 0,0 l/m 0 min 0 min 230 W/m 12,9 km/h (3 Bft) 93,62 %
24.05.2023 17:44 16,3 C 16,7 C 12,2 C 63 % 1023,7 hPa 0,0 l/m 0 min 0 min 230 W/m 9,7 km/h (2 Bft) 95,74 %
24.05.2023 17:46 16,3 C 16,7 C 12,2 C 64 % 1023,7 hPa 0,0 l/m 0 min 0 min 232 W/m 6,4 km/h (2 Bft) 95,65 %
24.05.2023 17:48 16,4 C 17,2 C 12,2 C 65 % 1023,7 hPa 0,0 l/m 0 min 0 min 228 W/m 3,2 km/h (1 Bft) 82,98 %
24.05.2023 17:50 16,4 C 17,2 C 12,2 C 65 % 1023,6 hPa 0,0 l/m 0 min 0 min 220 W/m 3,2 km/h (1 Bft) 36,17 %
24.05.2023 17:52 16,4 C 16,7 C 12,2 C 64 % 1023,7 hPa 0,0 l/m 0 min 0 min 208 W/m 12,9 km/h (3 Bft) 78,72 %
24.05.2023 17:54 16,4 C 16,7 C 12,2 C 64 % 1023,6 hPa 0,0 l/m 0 min 0 min 196 W/m 12,9 km/h (3 Bft) 68,09 %
24.05.2023 17:56 16,4 C 16,7 C 12,2 C 64 % 1023,7 hPa 0,0 l/m 0 min 0 min 178 W/m 12,9 km/h (3 Bft) 63,83 %
24.05.2023 17:58 16,3 C 16,7 C 12,2 C 64 % 1023,7 hPa 0,0 l/m 0 min 0 min 171 W/m 9,7 km/h (2 Bft) 19,15 %
24.05.2023 18:00 16,3 C 16,7 C 12,2 C 64 % 1023,7 hPa 0,0 l/m 0 min 0 min 159 W/m 6,4 km/h (2 Bft) 52,17 %
24.05.2023 18:02 16,3 C 16,7 C 12,2 C 64 % 1023,7 hPa 0,0 l/m 0 min 0 min 149 W/m 12,9 km/h (3 Bft) 29,41 %
24.05.2023 18:04 16,3 C 16,7 C 11,7 C 64 % 1023,6 hPa 0,0 l/m 0 min 0 min 149 W/m 9,7 km/h (2 Bft) 94,97 %
24.05.2023 18:07 16,2 C 16,7 C 11,7 C 65 % 1023,6 hPa 0,0 l/m 0 min 0 min 155 W/m 9,7 km/h (2 Bft) 94,97 %
24.05.2023 18:08 16,2 C 16,1 C 11,7 C 65 % 1023,6 hPa 0,0 l/m 0 min 0 min 151 W/m 9,7 km/h (2 Bft) 39,22 %
24.05.2023 18:10 16,1 C 16,1 C 11,7 C 65 % 1023,6 hPa 0,0 l/m 0 min 0 min 160 W/m 6,4 km/h (2 Bft) 76,60 %
24.05.2023 18:12 16,1 C 16,1 C 11,7 C 65 % 1023,6 hPa 0,0 l/m 0 min 0 min 156 W/m 6,4 km/h (2 Bft) 63,83 %
24.05.2023 18:18 16,1 C 16,1 C 11,7 C 65 % 1023,6 hPa 0,0 l/m 0 min 0 min 150 W/m 9,7 km/h (2 Bft) 77,59 %
24.05.2023 18:20 16,1 C 16,1 C 11,7 C 66 % 1023,6 hPa 0,0 l/m 0 min 0 min 136 W/m 3,2 km/h (1 Bft) 58,49 %
24.05.2023 18:22 16,1 C 16,1 C 11,7 C 66 % 1023,5 hPa 0,0 l/m 0 min 0 min 145 W/m 6,4 km/h (2 Bft) 57,45 %
24.05.2023 18:24 16,1 C 16,1 C 11,7 C 66 % 1023,5 hPa 0,0 l/m 0 min 0 min 152 W/m 6,4 km/h (2 Bft) 70,21 %
24.05.2023 18:26 16,1 C 16,1 C 11,7 C 66 % 1023,5 hPa 0,0 l/m 0 min 0 min 156 W/m 6,4 km/h (2 Bft) 36,96 %
24.05.2023 18:28 16,1 C 16,1 C 11,7 C 66 % 1023,5 hPa 0,0 l/m 0 min 0 min 157 W/m 3,2 km/h (1 Bft) 51,06 %
24.05.2023 18:30 16,1 C 16,1 C 12,2 C 66 % 1023,4 hPa 0,0 l/m 0 min 0 min 158 W/m 3,2 km/h (1 Bft) 42,55 %
24.05.2023 18:32 16,1 C 16,1 C 11,7 C 65 % 1023,5 hPa 0,0 l/m 0 min 0 min 165 W/m 12,9 km/h (3 Bft) 59,57 %
24.05.2023 18:34 16,0 C 16,1 C 11,7 C 65 % 1023,4 hPa 0,0 l/m 0 min 0 min 171 W/m 6,4 km/h (2 Bft) 31,91 %
24.05.2023 18:36 16,0 C 16,1 C 11,7 C 65 % 1023,3 hPa 0,0 l/m 0 min 0 min 171 W/m 6,4 km/h (2 Bft) 25,53 %
24.05.2023 18:38 16,0 C 16,7 C 12,2 C 65 % 1023,4 hPa 0,0 l/m 0 min 0 min 171 W/m 6,4 km/h (2 Bft) 12,77 %
24.05.2023 18:40 16,0 C 17,2 C 12,2 C 65 % 1023,3 hPa 0,0 l/m 2 min 0 min 222 W/m 3,2 km/h (1 Bft) 21,74 %
24.05.2023 18:42 16,1 C 17,2 C 12,2 C 65 % 1023,3 hPa 0,0 l/m 2 min 0 min 237 W/m 3,2 km/h (1 Bft) 12,77 %
24.05.2023 18:44 16,1 C 17,8 C 12,2 C 67 % 1023,3 hPa 0,0 l/m 2 min 0 min 237 W/m 3,2 km/h (1 Bft) 21,28 %
24.05.2023 18:46 16,2 C 17,8 C 12,2 C 66 % 1023,3 hPa 0,0 l/m 0 min 0 min 180 W/m 6,4 km/h (2 Bft) 31,91 %
24.05.2023 18:48 16,2 C 17,2 C 12,2 C 66 % 1023,4 hPa 0,0 l/m 0 min 0 min 162 W/m 9,7 km/h (2 Bft) 44,68 %
24.05.2023 18:50 16,3 C 17,2 C 12,2 C 65 % 1023,3 hPa 0,0 l/m 0 min 0 min 162 W/m 6,4 km/h (2 Bft) 17,02 %
24.05.2023 18:52 16,3 C 16,7 C 12,2 C 65 % 1023,3 hPa 0,0 l/m 0 min 0 min 162 W/m 0,0 km/h (0 Bft) 14,89 %
24.05.2023 18:54 16,3 C 16,7 C 12,2 C 66 % 1023,3 hPa 0,0 l/m 0 min 0 min 157 W/m 12,9 km/h (3 Bft) 26,09 %
24.05.2023 18:56 16,3 C 16,7 C 12,2 C 66 % 1023,3 hPa 0,0 l/m 0 min 0 min 171 W/m 3,2 km/h (1 Bft) 40,43 %
24.05.2023 18:58 16,2 C 16,7 C 12,2 C 66 % 1023,3 hPa 0,0 l/m 0 min 0 min 172 W/m 6,4 km/h (2 Bft) 42,55 %
24.05.2023 19:00 16,2 C 17,2 C 12,2 C 66 % 1023,3 hPa 0,0 l/m 2 min 0 min 203 W/m 6,4 km/h (2 Bft) 51,06 %
24.05.2023 19:02 16,2 C 16,7 C 12,2 C 66 % 1023,3 hPa 0,0 l/m 0 min 0 min 148 W/m 6,4 km/h (2 Bft) 63,83 %
24.05.2023 19:04 16,2 C 16,7 C 12,2 C 66 % 1023,4 hPa 0,0 l/m 0 min 0 min 134 W/m 6,4 km/h (2 Bft) 40,48 %
24.05.2023 19:06 16,2 C 16,7 C 11,7 C 66 % 1023,3 hPa 0,0 l/m 0 min 0 min 109 W/m 6,4 km/h (2 Bft) 38,30 %
24.05.2023 19:08 16,1 C 16,1 C 11,7 C 66 % 1023,3 hPa 0,0 l/m 0 min 0 min 94 W/m 9,7 km/h (2 Bft) 72,34 %
24.05.2023 19:10 16,1 C 16,1 C 11,7 C 66 % 1023,4 hPa 0,0 l/m 0 min 0 min 82 W/m 6,4 km/h (2 Bft) 72,22 %
24.05.2023 19:12 16,1 C 16,1 C 11,7 C 66 % 1023,4 hPa 0,0 l/m 0 min 0 min 74 W/m 9,7 km/h (2 Bft) 76,60 %
24.05.2023 19:14 16,1 C 15,6 C 11,7 C 66 % 1023,4 hPa 0,0 l/m 0 min 0 min 62 W/m 9,7 km/h (2 Bft) 74,47 %
24.05.2023 19:16 15,9 C 15,6 C 11,7 C 66 % 1023,4 hPa 0,0 l/m 0 min 0 min 56 W/m 9,7 km/h (2 Bft) 59,57 %
24.05.2023 19:18 15,9 C 15,6 C 11,7 C 67 % 1023,5 hPa 0,0 l/m 0 min 0 min 53 W/m 9,7 km/h (2 Bft) 91,49 %
24.05.2023 19:20 15,9 C 15,6 C 11,7 C 66 % 1023,5 hPa 0,0 l/m 0 min 0 min 51 W/m 6,4 km/h (2 Bft) 89,13 %
24.05.2023 19:22 15,8 C 15,6 C 11,1 C 67 % 1023,5 hPa 0,0 l/m 0 min 0 min 51 W/m 6,4 km/h (2 Bft) 59,57 %
24.05.2023 19:24 15,8 C 15,0 C 11,1 C 68 % 1023,5 hPa 0,0 l/m 0 min 0 min 53 W/m 9,7 km/h (2 Bft) 53,19 %
24.05.2023 19:26 15,7 C 15,0 C 11,1 C 68 % 1023,6 hPa 0,0 l/m 0 min 0 min 53 W/m 6,4 km/h (2 Bft) 25,53 %
24.05.2023 19:28 15,7 C 15,6 C 11,1 C 68 % 1023,5 hPa 0,0 l/m 0 min 0 min 53 W/m 3,2 km/h (1 Bft) 21,28 %
24.05.2023 19:30 15,6 C 15,6 C 11,1 C 68 % 1023,5 hPa 0,0 l/m 0 min 0 min 53 W/m 6,4 km/h (2 Bft) 34,04 %
24.05.2023 19:32 15,6 C 15,6 C 11,7 C 68 % 1023,5 hPa 0,0 l/m 0 min 0 min 53 W/m 3,2 km/h (1 Bft) 20,00 %
24.05.2023 19:34 15,6 C 15,6 C 11,7 C 69 % 1023,5 hPa 0,0 l/m 0 min 0 min 54 W/m 3,2 km/h (1 Bft) 53,45 %
24.05.2023 19:36 15,6 C 15,6 C 11,1 C 69 % 1023,5 hPa 0,0 l/m 0 min 0 min 76 W/m 3,2 km/h (1 Bft) 46,81 %
24.05.2023 19:38 15,6 C 15,6 C 11,1 C 69 % 1023,5 hPa 0,0 l/m 0 min 0 min 76 W/m 6,4 km/h (2 Bft) 53,19 %
24.05.2023 19:40 15,6 C 15,6 C 11,1 C 69 % 1023,5 hPa 0,0 l/m 0 min 0 min 76 W/m 3,2 km/h (1 Bft) 45,71 %
24.05.2023 19:42 15,6 C 15,6 C 11,1 C 69 % 1023,5 hPa 0,0 l/m 0 min 0 min 76 W/m 3,2 km/h (1 Bft) 53,19 %
24.05.2023 19:44 15,6 C 15,6 C 11,7 C 69 % 1023,5 hPa 0,0 l/m 0 min 0 min 76 W/m 6,4 km/h (2 Bft) 78,72 %
24.05.2023 19:46 15,6 C 15,6 C 11,1 C 69 % 1023,5 hPa 0,0 l/m 0 min 0 min 76 W/m 6,4 km/h (2 Bft) 59,57 %
24.05.2023 19:48 15,5 C 15,6 C 11,1 C 70 % 1023,5 hPa 0,0 l/m 0 min 0 min 77 W/m 6,4 km/h (2 Bft) 61,70 %
24.05.2023 19:50 15,5 C 15,0 C 11,1 C 69 % 1023,5 hPa 0,0 l/m 0 min 0 min 82 W/m 3,2 km/h (1 Bft) 59,57 %
24.05.2023 19:52 15,5 C 15,0 C 11,1 C 69 % 1023,4 hPa 0,0 l/m 0 min 0 min 82 W/m 3,2 km/h (1 Bft) 47,83 %
24.05.2023 19:54 15,5 C 15,0 C 11,1 C 69 % 1023,5 hPa 0,0 l/m 0 min 0 min 76 W/m 0,0 km/h (0 Bft) 42,55 %
24.05.2023 19:56 15,5 C 15,0 C 11,1 C 69 % 1023,5 hPa 0,0 l/m 0 min 0 min 70 W/m 3,2 km/h (1 Bft) 25,53 %
24.05.2023 19:58 15,4 C 15,0 C 11,1 C 70 % 1023,5 hPa 0,0 l/m 0 min 0 min 65 W/m 3,2 km/h (1 Bft) 42,55 %
24.05.2023 20:00 15,4 C 15,0 C 11,1 C 70 % 1023,5 hPa 0,0 l/m 0 min 0 min 59 W/m 0,0 km/h (0 Bft) 34,04 %
24.05.2023 20:02 15,4 C 15,0 C 11,1 C 71 % 1023,5 hPa 0,0 l/m 0 min 0 min 54 W/m 3,2 km/h (1 Bft) 57,45 %
24.05.2023 20:04 15,4 C 15,0 C 11,1 C 71 % 1023,5 hPa 0,0 l/m 0 min 0 min 50 W/m 3,2 km/h (1 Bft) 54,55 %
24.05.2023 20:06 15,4 C 14,4 C 10,6 C 71 % 1023,5 hPa 0,0 l/m 0 min 0 min 47 W/m 3,2 km/h (1 Bft) 49,15 %
24.05.2023 20:08 15,3 C 14,4 C 10,6 C 71 % 1023,6 hPa 0,0 l/m 0 min 0 min 45 W/m 3,2 km/h (1 Bft) 34,15 %
24.05.2023 20:10 15,3 C 14,4 C 10,6 C 71 % 1023,6 hPa 0,0 l/m 0 min 0 min 42 W/m 3,2 km/h (1 Bft) 29,79 %
24.05.2023 20:12 15,3 C 14,4 C 10,6 C 71 % 1023,6 hPa 0,0 l/m 0 min 0 min 39 W/m 3,2 km/h (1 Bft) 29,79 %
24.05.2023 20:14 15,3 C 14,4 C 10,6 C 71 % 1023,6 hPa 0,0 l/m 0 min 0 min 39 W/m 0,0 km/h (0 Bft) 27,66 %
24.05.2023 20:16 15,2 C 14,4 C 10,6 C 72 % 1023,6 hPa 0,0 l/m 0 min 0 min 37 W/m 3,2 km/h (1 Bft) 48,94 %
24.05.2023 20:18 15,2 C 13,9 C 10,6 C 72 % 1023,5 hPa 0,0 l/m 0 min 0 min 38 W/m 3,2 km/h (1 Bft) 36,17 %
24.05.2023 20:20 15,1 C 13,9 C 10,6 C 72 % 1023,5 hPa 0,0 l/m 0 min 0 min 41 W/m 3,2 km/h (1 Bft) 52,17 %
24.05.2023 20:22 15,1 C 13,9 C 10,6 C 72 % 1023,6 hPa 0,0 l/m 0 min 0 min 42 W/m 3,2 km/h (1 Bft) 40,43 %
24.05.2023 20:24 15,1 C 13,9 C 10,6 C 72 % 1023,5 hPa 0,0 l/m 0 min 0 min 40 W/m 0,0 km/h (0 Bft) 80,85 %
24.05.2023 20:26 15,1 C 13,9 C 10,6 C 72 % 1023,5 hPa 0,0 l/m 0 min 0 min 34 W/m 0,0 km/h (0 Bft) 78,72 %
24.05.2023 20:28 15,0 C 13,9 C 10,0 C 73 % 1023,6 hPa 0,0 l/m 0 min 0 min 33 W/m 0,0 km/h (0 Bft) 42,55 %
24.05.2023 20:30 14,9 C 13,9 C 10,0 C 73 % 1023,5 hPa 0,0 l/m 0 min 0 min 32 W/m 0,0 km/h (0 Bft) 30,43 %
24.05.2023 20:32 14,9 C 13,3 C 10,0 C 73 % 1023,6 hPa 0,0 l/m 0 min 0 min 32 W/m 0,0 km/h (0 Bft) 27,66 %
24.05.2023 20:34 14,8 C 13,3 C 10,0 C 73 % 1023,5 hPa 0,0 l/m 0 min 0 min 31 W/m 0,0 km/h (0 Bft) 39,13 %
24.05.2023 20:36 14,8 C 13,3 C 10,0 C 73 % 1023,5 hPa 0,0 l/m 0 min 0 min 26 W/m 0,0 km/h (0 Bft) 68,09 %
24.05.2023 20:38 14,8 C 13,3 C 10,0 C 74 % 1023,5 hPa 0,0 l/m 0 min 0 min 28 W/m 0,0 km/h (0 Bft) 63,83 %
24.05.2023 20:40 14,7 C 13,3 C 10,0 C 74 % 1023,6 hPa 0,0 l/m 0 min 0 min 28 W/m 0,0 km/h (0 Bft) 55,32 %
24.05.2023 20:42 14,7 C 13,3 C 10,0 C 74 % 1023,6 hPa 0,0 l/m 0 min 0 min 30 W/m 0,0 km/h (0 Bft) 46,81 %
24.05.2023 20:44 14,7 C 12,8 C 9,4 C 75 % 1023,7 hPa 0,0 l/m 0 min 0 min 29 W/m 0,0 km/h (0 Bft) 51,06 %
24.05.2023 20:46 14,6 C 12,8 C 9,4 C 75 % 1023,6 hPa 0,0 l/m 0 min 0 min 27 W/m 0,0 km/h (0 Bft) 53,19 %
24.05.2023 20:48 14,6 C 12,8 C 9,4 C 75 % 1023,7 hPa 0,0 l/m 0 min 0 min 25 W/m 0,0 km/h (0 Bft) 45,65 %
24.05.2023 20:50 14,5 C 12,8 C 9,4 C 75 % 1023,7 hPa 0,0 l/m 0 min 0 min 24 W/m 0,0 km/h (0 Bft) 65,96 %
24.05.2023 20:52 14,5 C 12,8 C 9,4 C 75 % 1023,7 hPa 0,0 l/m 0 min 0 min 21 W/m 3,2 km/h (1 Bft) 70,21 %
24.05.2023 20:54 14,4 C 12,8 C 9,4 C 75 % 1023,7 hPa 0,0 l/m 0 min 0 min 18 W/m 0,0 km/h (0 Bft) 51,06 %
24.05.2023 20:56 14,3 C 12,8 C 9,4 C 76 % 1023,7 hPa 0,0 l/m 0 min 0 min 16 W/m 0,0 km/h (0 Bft) 70,21 %
24.05.2023 20:58 14,3 C 12,8 C 9,4 C 76 % 1023,7 hPa 0,0 l/m 0 min 0 min 15 W/m 0,0 km/h (0 Bft) 72,34 %
24.05.2023 21:00 14,3 C 12,8 C 9,4 C 76 % 1023,7 hPa 0,0 l/m 0 min 0 min 14 W/m 0,0 km/h (0 Bft) 76,60 %
24.05.2023 21:02 14,3 C 12,8 C 9,4 C 76 % 1023,7 hPa 0,0 l/m 0 min 0 min 12 W/m 0,0 km/h (0 Bft) 63,04 %
24.05.2023 21:04 14,3 C 12,2 C 9,4 C 76 % 1023,8 hPa 0,0 l/m 0 min 0 min 12 W/m 0,0 km/h (0 Bft) 86,05 %
24.05.2023 21:06 14,2 C 12,2 C 8,9 C 77 % 1023,8 hPa 0,0 l/m 0 min 0 min 11 W/m 0,0 km/h (0 Bft) 100,00 %
24.05.2023 21:08 14,1 C 12,2 C 8,9 C 77 % 1023,9 hPa 0,0 l/m 0 min 0 min 11 W/m 0,0 km/h (0 Bft) 100,00 %
24.05.2023 21:10 14,1 C 12,2 C 8,9 C 77 % 1023,8 hPa 0,0 l/m 0 min 0 min 11 W/m 0,0 km/h (0 Bft) 97,87 %
24.05.2023 21:12 14,0 C 12,2 C 8,9 C 77 % 1023,9 hPa 0,0 l/m 0 min 0 min 11 W/m 0,0 km/h (0 Bft) 85,11 %
24.05.2023 21:14 14,0 C 12,2 C 8,9 C 78 % 1023,9 hPa 0,0 l/m 0 min 0 min 11 W/m 0,0 km/h (0 Bft) 85,11 %
24.05.2023 21:16 13,9 C 12,2 C 8,9 C 78 % 1023,9 hPa 0,0 l/m 0 min 0 min 11 W/m 0,0 km/h (0 Bft) 100,00 %
24.05.2023 21:18 13,9 C 12,2 C 8,9 C 78 % 1023,9 hPa 0,0 l/m 0 min 0 min 9 W/m 0,0 km/h (0 Bft) 93,62 %
24.05.2023 21:20 13,8 C 12,2 C 8,9 C 78 % 1024,0 hPa 0,0 l/m 0 min 0 min 7 W/m 0,0 km/h (0 Bft) 97,87 %
24.05.2023 21:22 13,8 C 12,2 C 8,9 C 78 % 1024,0 hPa 0,0 l/m 0 min 0 min 7 W/m 0,0 km/h (0 Bft) 97,87 %
24.05.2023 21:24 13,7 C 12,2 C 8,9 C 79 % 1024,0 hPa 0,0 l/m 0 min 0 min 5 W/m 0,0 km/h (0 Bft) 97,87 %
24.05.2023 21:26 13,7 C 12,2 C 8,9 C 79 % 1024,0 hPa 0,0 l/m 0 min 0 min 5 W/m 0,0 km/h (0 Bft) 95,74 %
24.05.2023 21:28 13,7 C 12,2 C 8,9 C 79 % 1024,0 hPa 0,0 l/m 0 min 0 min 0 W/m 0,0 km/h (0 Bft) 97,87 %
24.05.2023 21:30 13,6 C 12,2 C 8,9 C 79 % 1024,0 hPa 0,0 l/m 0 min 0 min 0 W/m 0,0 km/h (0 Bft) 93,62 %
24.05.2023 21:32 13,6 C 12,2 C 8,9 C 80 % 1024,0 hPa 0,0 l/m 0 min 0 min 0 W/m 0,0 km/h (0 Bft) 97,83 %
24.05.2023 21:34 13,6 C 12,2 C 8,9 C 80 % 1024,0 hPa 0,0 l/m 0 min 0 min 0 W/m 0,0 km/h (0 Bft) 97,87 %
24.05.2023 21:36 13,6 C 12,2 C 8,9 C 80 % 1024,1 hPa 0,0 l/m 0 min 0 min 0 W/m 0,0 km/h (0 Bft) 95,74 %
24.05.2023 21:38 13,5 C 12,2 C 8,9 C 80 % 1024,1 hPa 0,0 l/m 0 min 0 min 0 W/m 0,0 km/h (0 Bft) 97,87 %
24.05.2023 21:40 13,5 C 12,2 C 8,9 C 80 % 1024,1 hPa 0,0 l/m 0 min 0 min 0 W/m 0,0 km/h (0 Bft) 97,87 %
24.05.2023 21:42 13,4 C 12,2 C 8,9 C 81 % 1024,1 hPa 0,0 l/m 0 min 0 min 0 W/m 0,0 km/h (0 Bft) 97,87 %
24.05.2023 21:44 13,4 C 12,2 C 8,9 C 81 % 1024,1 hPa 0,0 l/m 0 min 0 min 0 W/m 0,0 km/h (0 Bft) 97,83 %
24.05.2023 21:46 13,4 C 12,2 C 8,9 C 81 % 1024,1 hPa 0,0 l/m 0 min 0 min 0 W/m 0,0 km/h (0 Bft) 95,74 %
24.05.2023 21:48 13,4 C 12,2 C 8,9 C 81 % 1024,2 hPa 0,0 l/m 0 min 0 min 0 W/m 0,0 km/h (0 Bft) 97,87 %
24.05.2023 21:50 13,4 C 12,2 C 8,9 C 81 % 1024,1 hPa 0,0 l/m 0 min 0 min 0 W/m 0,0 km/h (0 Bft) 100,00 %
24.05.2023 21:52 13,3 C 12,2 C 8,9 C 81 % 1024,2 hPa 0,0 l/m 0 min 0 min 0 W/m 0,0 km/h (0 Bft) 100,00 %
24.05.2023 21:54 13,3 C 12,2 C 8,9 C 81 % 1024,2 hPa 0,0 l/m 0 min 0 min 0 W/m 0,0 km/h (0 Bft) 97,87 %
24.05.2023 21:56 13,3 C 12,2 C 8,9 C 81 % 1024,2 hPa 0,0 l/m 0 min 0 min 0 W/m 0,0 km/h (0 Bft) 100,00 %
24.05.2023 21:58 13,3 C 12,2 C 8,9 C 81 % 1024,2 hPa 0,0 l/m 0 min 0 min 0 W/m 0,0 km/h (0 Bft) 100,00 %
24.05.2023 22:00 13,3 C 12,2 C 8,9 C 82 % 1024,3 hPa 0,0 l/m 0 min 0 min 0 W/m 0,0 km/h (0 Bft) 100,00 %
24.05.2023 22:02 13,3 C 11,7 C 8,9 C 82 % 1024,3 hPa 0,0 l/m 0 min 0 min 0 W/m 0,0 km/h (0 Bft) 100,00 %
24.05.2023 22:04 13,2 C 11,7 C 8,9 C 82 % 1024,3 hPa 0,0 l/m 0 min 0 min 0 W/m 0,0 km/h (0 Bft) 100,00 %
24.05.2023 22:06 13,2 C 11,7 C 8,3 C 82 % 1024,3 hPa 0,0 l/m 0 min 0 min 0 W/m 0,0 km/h (0 Bft) 100,00 %
24.05.2023 22:08 13,2 C 11,7 C 8,3 C 82 % 1024,3 hPa 0,0 l/m 0 min 0 min 0 W/m 0,0 km/h (0 Bft) 97,87 %
24.05.2023 22:10 13,2 C 11,7 C 8,3 C 82 % 1024,3 hPa 0,0 l/m 0 min 0 min 0 W/m 0,0 km/h (0 Bft) 95,74 %
24.05.2023 22:12 13,1 C 11,7 C 8,3 C 82 % 1024,3 hPa 0,0 l/m 0 min 0 min 0 W/m 0,0 km/h (0 Bft) 97,83 %
24.05.2023 22:14 13,1 C 11,7 C 8,3 C 82 % 1024,4 hPa 0,0 l/m 0 min 0 min 0 W/m 0,0 km/h (0 Bft) 95,74 %
24.05.2023 22:16 13,0 C 11,7 C 8,3 C 81 % 1024,4 hPa 0,0 l/m 0 min 0 min 0 W/m 0,0 km/h (0 Bft) 97,87 %
24.05.2023 22:18 13,0 C 11,7 C 8,3 C 81 % 1024,3 hPa 0,0 l/m 0 min 0 min 0 W/m 0,0 km/h (0 Bft) 97,87 %
24.05.2023 22:20 12,9 C 11,7 C 8,3 C 81 % 1024,3 hPa 0,0 l/m 0 min 0 min 0 W/m 0,0 km/h (0 Bft) 95,74 %
24.05.2023 22:22 12,9 C 11,1 C 8,3 C 81 % 1024,4 hPa 0,0 l/m 0 min 0 min 0 W/m 0,0 km/h (0 Bft) 97,87 %
24.05.2023 22:24 12,9 C 11,7 C 8,3 C 82 % 1024,4 hPa 0,0 l/m 0 min 0 min 0 W/m 0,0 km/h (0 Bft) 95,74 %
24.05.2023 22:26 12,9 C 11,7 C 8,3 C 82 % 1024,4 hPa 0,0 l/m 0 min 0 min 0 W/m 0,0 km/h (0 Bft) 95,74 %
24.05.2023 22:28 12,8 C 11,7 C 8,3 C 82 % 1024,4 hPa 0,0 l/m 0 min 0 min 0 W/m 0,0 km/h (0 Bft) 93,75 %
24.05.2023 22:30 12,8 C 11,7 C 8,3 C 82 % 1024,4 hPa 0,0 l/m 0 min 0 min 0 W/m 0,0 km/h (0 Bft) 95,74 %
24.05.2023 22:32 12,8 C 11,7 C 8,3 C 82 % 1024,5 hPa 0,0 l/m 0 min 0 min 0 W/m 0,0 km/h (0 Bft) 95,74 %
24.05.2023 22:34 12,8 C 11,7 C 8,3 C 83 % 1024,5 hPa 0,0 l/m 0 min 0 min 0 W/m 0,0 km/h (0 Bft) 95,74 %
24.05.2023 22:36 12,8 C 11,7 C 8,3 C 82 % 1024,5 hPa 0,0 l/m 0 min 0 min 0 W/m 0,0 km/h (0 Bft) 95,74 %
24.05.2023 22:38 12,8 C 11,7 C 8,3 C 82 % 1024,6 hPa 0,0 l/m 0 min 0 min 0 W/m 0,0 km/h (0 Bft) 95,74 %
24.05.2023 22:40 12,7 C 11,7 C 8,3 C 83 % 1024,5 hPa 0,0 l/m 0 min 0 min 0 W/m 0,0 km/h (0 Bft) 95,74 %
24.05.2023 22:42 12,7 C 11,7 C 8,3 C 83 % 1024,6 hPa 0,0 l/m 0 min 0 min 0 W/m 0,0 km/h (0 Bft) 93,48 %
24.05.2023 22:44 12,7 C 11,7 C 8,3 C 83 % 1024,6 hPa 0,0 l/m 0 min 0 min 0 W/m 0,0 km/h (0 Bft) 91,49 %
24.05.2023 22:46 12,7 C 11,7 C 8,3 C 83 % 1024,6 hPa 0,0 l/m 0 min 0 min 0 W/m 0,0 km/h (0 Bft) 95,74 %
24.05.2023 22:48 12,7 C 11,7 C 8,3 C 83 % 1024,6 hPa 0,0 l/m 0 min 0 min 0 W/m 0,0 km/h (0 Bft) 97,14 %
24.05.2023 22:50 12,7 C 11,7 C 8,9 C 83 % 1024,7 hPa 0,0 l/m 0 min 0 min 0 W/m 0,0 km/h (0 Bft) 94,92 %
24.05.2023 22:52 12,7 C 11,7 C 8,3 C 83 % 1024,6 hPa 0,0 l/m 0 min 0 min 0 W/m 0,0 km/h (0 Bft) 93,62 %
24.05.2023 22:54 12,7 C 11,7 C 8,3 C 83 % 1024,6 hPa 0,0 l/m 0 min 0 min 0 W/m 0,0 km/h (0 Bft) 95,74 %
24.05.2023 22:56 12,7 C 12,2 C 8,9 C 83 % 1024,6 hPa 0,0 l/m 0 min 0 min 0 W/m 0,0 km/h (0 Bft) 94,44 %
24.05.2023 22:58 12,7 C 12,2 C 8,9 C 83 % 1024,7 hPa 0,0 l/m 0 min 0 min 0 W/m 3,2 km/h (1 Bft) 93,10 %
24.05.2023 23:00 12,6 C 12,2 C 8,9 C 83 % 1024,7 hPa 0,0 l/m 0 min 0 min 0 W/m 0,0 km/h (0 Bft) 91,43 %
24.05.2023 23:02 12,6 C 12,2 C 8,9 C 83 % 1024,7 hPa 0,0 l/m 0 min 0 min 0 W/m 0,0 km/h (0 Bft) 95,74 %
24.05.2023 23:04 12,6 C 12,2 C 8,9 C 83 % 1024,8 hPa 0,0 l/m 0 min 0 min 0 W/m 3,2 km/h (1 Bft) 95,83 %
24.05.2023 23:06 12,6 C 12,2 C 8,9 C 83 % 1024,7 hPa 0,0 l/m 0 min 0 min 0 W/m 0,0 km/h (0 Bft) 94,83 %
24.05.2023 23:08 12,6 C 12,2 C 8,9 C 83 % 1024,8 hPa 0,0 l/m 0 min 0 min 0 W/m 0,0 km/h (0 Bft) 97,62 %
24.05.2023 23:10 12,6 C 12,2 C 8,9 C 83 % 1024,7 hPa 0,0 l/m 0 min 0 min 0 W/m 0,0 km/h (0 Bft) 97,87 %
24.05.2023 23:12 12,6 C 12,2 C 8,9 C 83 % 1024,8 hPa 0,0 l/m 0 min 0 min 0 W/m 0,0 km/h (0 Bft) 95,65 %
24.05.2023 23:14 12,6 C 12,2 C 8,9 C 83 % 1024,8 hPa 0,0 l/m 0 min 0 min 0 W/m 3,2 km/h (1 Bft) 97,87 %
24.05.2023 23:16 12,6 C 12,2 C 8,9 C 83 % 1024,8 hPa 0,0 l/m 0 min 0 min 0 W/m 3,2 km/h (1 Bft) 97,87 %
24.05.2023 23:18 12,6 C 12,2 C 8,9 C 83 % 1024,8 hPa 0,0 l/m 0 min 0 min 0 W/m 3,2 km/h (1 Bft) 97,87 %
24.05.2023 23:20 12,6 C 12,2 C 8,9 C 82 % 1024,8 hPa 0,0 l/m 0 min 0 min 0 W/m 0,0 km/h (0 Bft) 95,74 %
24.05.2023 23:22 12,6 C 12,2 C 8,9 C 82 % 1024,8 hPa 0,0 l/m 0 min 0 min 0 W/m 3,2 km/h (1 Bft) 97,87 %
24.05.2023 23:24 12,6 C 12,2 C 8,9 C 82 % 1024,8 hPa 0,0 l/m 0 min 0 min 0 W/m 3,2 km/h (1 Bft) 97,87 %
24.05.2023 23:26 12,6 C 12,2 C 8,9 C 82 % 1024,8 hPa 0,0 l/m 0 min 0 min 0 W/m 0,0 km/h (0 Bft) 96,15 %
24.05.2023 23:28 12,6 C 11,7 C 8,3 C 81 % 1024,8 hPa 0,0 l/m 0 min 0 min 0 W/m 3,2 km/h (1 Bft) 97,87 %
24.05.2023 23:30 12,6 C 11,7 C 8,3 C 81 % 1024,8 hPa 0,0 l/m 0 min 0 min 0 W/m 9,7 km/h (2 Bft) 100,00 %
24.05.2023 23:32 12,6 C 11,7 C 8,3 C 81 % 1024,8 hPa 0,0 l/m 0 min 0 min 0 W/m 3,2 km/h (1 Bft) 100,00 %
24.05.2023 23:34 12,6 C 11,7 C 8,3 C 81 % 1024,8 hPa 0,0 l/m 0 min 0 min 0 W/m 0,0 km/h (0 Bft) 100,00 %
24.05.2023 23:36 12,6 C 11,7 C 8,3 C 81 % 1024,8 hPa 0,0 l/m 0 min 0 min 0 W/m 0,0 km/h (0 Bft) 100,00 %
24.05.2023 23:38 12,6 C 11,7 C 8,3 C 81 % 1024,8 hPa 0,0 l/m 0 min 0 min 0 W/m 3,2 km/h (1 Bft) 100,00 %
24.05.2023 23:40 12,6 C 11,7 C 8,3 C 81 % 1024,8 hPa 0,0 l/m 0 min 0 min 0 W/m 0,0 km/h (0 Bft) 100,00 %
24.05.2023 23:42 12,6 C 11,7 C 8,3 C 81 % 1024,8 hPa 0,0 l/m 0 min 0 min 0 W/m 3,2 km/h (1 Bft) 100,00 %
24.05.2023 23:44 12,6 C 11,1 C 7,8 C 81 % 1024,8 hPa 0,0 l/m 0 min 0 min 0 W/m 0,0 km/h (0 Bft) 100,00 %
24.05.2023 23:46 12,6 C 11,1 C 7,8 C 81 % 1024,9 hPa 0,0 l/m 0 min 0 min 0 W/m 3,2 km/h (1 Bft) 100,00 %
24.05.2023 23:48 12,5 C 11,1 C 7,8 C 81 % 1024,9 hPa 0,0 l/m 0 min 0 min 0 W/m 0,0 km/h (0 Bft) 100,00 %
24.05.2023 23:50 12,5 C 11,1 C 7,8 C 81 % 1024,8 hPa 0,0 l/m 0 min 0 min 0 W/m 0,0 km/h (0 Bft) 100,00 %
24.05.2023 23:52 12,5 C 11,1 C 7,8 C 81 % 1024,9 hPa 0,0 l/m 0 min 0 min 0 W/m 0,0 km/h (0 Bft) 100,00 %
24.05.2023 23:54 12,4 C 11,1 C 7,8 C 81 % 1024,9 hPa 0,0 l/m 0 min 0 min 0 W/m 0,0 km/h (0 Bft) 100,00 %
24.05.2023 23:56 12,4 C 10,6 C 7,8 C 81 % 1024,9 hPa 0,0 l/m 0 min 0 min 0 W/m 0,0 km/h (0 Bft) 100,00 %
24.05.2023 23:58 12,4 C 10,6 C 7,8 C 81 % 1024,9 hPa 0,0 l/m 0 min 0 min 0 W/m 0,0 km/h (0 Bft) 100,00 %
_ Min-Zeit 06:00 04:14 05:24 16:24 18:36 - - - - 01:24 18:38
Minimum _ 6,3 C 5,6 C 2,2 C 58 % 1023,3 hPa - - - - 0,0 km/h (0 Bft) 12,77 %
_ Max-Zeit 16:22 16:16 13:36 06:34 09:20 00:00 12:07 00:00 13:36 13:00 00:00
Maximum _ 18,3 C 23,9 C 17,2 C 92 % 1024,9 hPa 0,0 l/m 3 min 0 min 1178 W/m 29,0 km/h
N-NW (5 Bft)
100,00 %
Durchschnitt _ 12,2 C 12,3 C 8,4 C 77 % 1024,2 hPa #0,0 l/m #3:32 h #0 min. 228 W/m 6,6 km/h (2 Bft) 89,99 %
© 2023 W. Hausmann